Home > Products > Valid Products > MTR

000
SAUS41 KLWX 292004
MTRRSP
METAR KRSP 291954Z AUTO 10SM CLR 03/M15 A3019 RMK AO2 SLP251
T00331150 $





000
SAUS41 KLWX 292000
MTRRYT
METAR KRYT 291953Z AUTO 25004KT 10SM CLR 05/M13 A3022 RMK AO2 SLP248
T00501128 $





000
SAUS41 KLWX 291956
MTRNAK
METAR KNAK 291954Z AUTO 13011KT 10SM CLR 04/M07 A3028 RMK AO2 SLP255
T00391072





000
SAUS41 KLWX 291904
MTRRSP
METAR KRSP 291854Z AUTO 10SM CLR 02/M16 A3020 RMK AO2 SLP256
T00221156 $





000
SAUS41 KLWX 291904
MTRRSP
METAR KRSP 291854Z AUTO 10SM CLR 02/M16 A3020 RMK AO2 SLP256
T00221156 $





000
SAUS41 KLWX 291900
MTRRYT
METAR KRYT 291853Z AUTO 29005KT 10SM CLR 04/M13 A3024 RMK AO2 SLP257
T00441133 $





000
SAUS41 KLWX 291855
MTRNAK
METAR KNAK 291854Z AUTO 10SM CLR 06/M14 A3031 RMK AO2 SLP265
T00561139





000
SAUS41 KLWX 291855
MTRNAK
METAR KNAK 291854Z AUTO 10SM CLR 06/M14 A3031 RMK AO2 SLP265
T00561139





000
SAUS41 KLWX 291804
MTRRSP
METAR KRSP 291754Z AUTO 10SM CLR 01/M16 A3024 RMK AO2 SLP268
T00111161 10011 21083 58003 $





000
SAUS41 KLWX 291804
MTRRSP
METAR KRSP 291754Z AUTO 10SM CLR 01/M16 A3024 RMK AO2 SLP268
T00111161 10011 21083 58003 $





000
SAUS41 KLWX 291800
MTRRYT
METAR KRYT 291753Z AUTO VRB05KT 10SM CLR 03/M13 A3027 RMK AO2 SLP267
T00331133 10033 21061 56023 $





000
SAUS41 KLWX 291800
MTRRYT
METAR KRYT 291753Z AUTO VRB05KT 10SM CLR 03/M13 A3027 RMK AO2 SLP267
T00331133 10033 21061 56023 $





000
SAUS41 KLWX 291755
MTRNAK
METAR KNAK 291754Z AUTO 33008KT 10SM CLR 04/M13 A3033 RMK AO2 SLP271
T00441133 10044 21028 58021





000
SAUS41 KLWX 291755
MTRNAK
METAR KNAK 291754Z AUTO 33008KT 10SM CLR 04/M13 A3033 RMK AO2 SLP271
T00441133 10044 21028 58021





000
SAUS41 KLWX 291704
MTRRSP
METAR KRSP 291654Z AUTO 10SM CLR M01/M16 A3026 RMK AO2 SLP278
T10061156 $





000
SAUS41 KLWX 291704
MTRRSP
METAR KRSP 291654Z AUTO 10SM CLR M01/M16 A3026 RMK AO2 SLP278
T10061156 $





000
SAUS41 KLWX 291700
MTRRYT
METAR KRYT 291653Z AUTO 24008G14KT 10SM CLR 02/M13 A3030 RMK AO2
SLP277 T00171128 $





000
SAUS41 KLWX 291700
MTRRYT
METAR KRYT 291653Z AUTO 24008G14KT 10SM CLR 02/M13 A3030 RMK AO2
SLP277 T00171128 $





000
SAUS41 KLWX 291655
MTRNAK
METAR KNAK 291654Z AUTO 32009KT 10SM CLR 03/M13 A3035 RMK AO2 SLP280
T00281133





000
SAUS41 KLWX 291655
MTRNAK
METAR KNAK 291654Z AUTO 32009KT 10SM CLR 03/M13 A3035 RMK AO2 SLP280
T00281133





000
SAUS41 KLWX 291604
MTRRSP
METAR KRSP 291554Z AUTO 10SM CLR M02/M14 A3025 RMK AO2 SLP276
T10221144 $





000
SAUS41 KLWX 291600
MTRRYT
METAR KRYT 291553Z AUTO 00000KT 10SM CLR 00/M14 A3031 RMK AO2 SLP284
T00001139 $





000
SAUS41 KLWX 291556
MTRNAK
METAR KNAK 291554Z AUTO 31009KT 10SM CLR 02/M13 A3038 RMK AO2 SLP289
T00221133





000
SAUS41 KLWX 291504
MTRRSP
METAR KRSP 291454Z AUTO 10SM CLR M03/M14 A3024 RMK AO2 SLP273
T10331139 51035 $





000
SAUS41 KLWX 291500
MTRRYT
METAR KRYT 291453Z AUTO 24007KT 10SM CLR M02/M13 A3034 RMK AO2
SLP294 T10171128 53009 $





000
SAUS41 KLWX 291455
MTRNAK
METAR KNAK 291454Z AUTO 31009KT 10SM CLR 01/M12 A3039 RMK AO2 SLP292
T00061122 53009





000
SAUS41 KLWX 291455
MTRNAK
METAR KNAK 291454Z AUTO 31009KT 10SM CLR 01/M12 A3039 RMK AO2 SLP292
T00061122 53009





000
SAUS41 KLWX 291404
MTRRSP
METAR KRSP 291354Z AUTO 10SM CLR M04/M14 A3022 RMK AO2 SLP266
T10441139 $





000
SAUS41 KLWX 291404
MTRRSP
METAR KRSP 291354Z AUTO 10SM CLR M04/M14 A3022 RMK AO2 SLP266
T10441139 $





000
SAUS41 KLWX 291401 COR
MTRDMH
METAR KDMH 291354Z AUTO 00/M14 A3039 RMK AO1 SLP291 T00001144





000
SAUS41 KLWX 291400
MTRRYT
METAR KRYT 291353Z AUTO 29007KT 240V320 10SM CLR M03/M13 A3033 RMK
AO2 SLP291 T10281128 $





000
SAUS41 KLWX 291355
MTRNAK
METAR KNAK 291354Z AUTO 31010KT 10SM CLR M01/M11 A3038 RMK AO2
SLP289 T10061111





000
SAUS41 KLWX 291355
MTRNAK
METAR KNAK 291354Z AUTO 31010KT 10SM CLR M01/M11 A3038 RMK AO2
SLP289 T10061111





000
SAUS41 KLWX 291304
MTRRSP
METAR KRSP 291254Z AUTO 10SM CLR M07/M13 A3019 RMK AO2 SLP257
T10671133 $





000
SAUS41 KLWX 291304
MTRRSP
METAR KRSP 291254Z AUTO 10SM CLR M07/M13 A3019 RMK AO2 SLP257
T10671133 $





000
SAUS41 KLWX 291301 COR
MTRDMH
METAR KDMH 291254Z AUTO M01/M13 A3036 RMK AO1 SLP279 T10111133





000
SAUS41 KLWX 291301 COR
MTRDMH
METAR KDMH 291254Z AUTO M01/M13 A3036 RMK AO1 SLP279 T10111133





000
SAUS41 KLWX 291300
MTRRYT
METAR KRYT 291253Z AUTO 32005KT 10SM CLR M04/M13 A3032 RMK AO2
SLP287 T10391128 $





000
SAUS41 KLWX 291300
MTRRYT
METAR KRYT 291253Z AUTO 32005KT 10SM CLR M04/M13 A3032 RMK AO2
SLP287 T10391128 $





000
SAUS41 KLWX 291255
MTRNAK
METAR KNAK 291254Z AUTO 33012KT 10SM CLR M01/M10 A3037 RMK AO2
SLP285 T10111100





000
SAUS41 KLWX 291255
MTRNAK
METAR KNAK 291254Z AUTO 33012KT 10SM CLR M01/M10 A3037 RMK AO2
SLP285 T10111100





000
SAUS41 KLWX 291237
MTRRSP
SPECI KRSP 291227Z AUTO 10SM CLR M07/M13 A3057 RMK AO2 $





000
SAUS41 KLWX 291237
MTRRSP
SPECI KRSP 291227Z AUTO 10SM CLR M07/M13 A3057 RMK AO2 $





000
SAUS41 KLWX 291204
MTRRSP
METAR KRSP 291154Z AUTO 10SM CLR M08/M14 A3014 RMK AO2 PRESRR SLP240
T10831139 11078 21094 56073 $





000
SAUS41 KLWX 291204
MTRRSP
METAR KRSP 291154Z AUTO 10SM CLR M08/M14 A3014 RMK AO2 PRESRR SLP240
T10831139 11078 21094 56073 $





000
SAUS41 KLWX 291202 COR
MTRDMH
METAR KDMH 291154Z AUTO M03/M13 A3040 RMK AO1 PRESFR SLP293
T10281133 11017 21033 53013





000
SAUS41 KLWX 291202 COR
MTRDMH
METAR KDMH 291154Z AUTO M03/M13 A3040 RMK AO1 PRESFR SLP293
T10281133 11017 21033 53013





000
SAUS41 KLWX 291200
MTRRYT
METAR KRYT 291153Z AUTO VRB04KT 10SM CLR M06/M13 A3031 RMK AO2
SLP287 T10611133 11050 21067 53024 $





000
SAUS41 KLWX 291200
MTRRYT
METAR KRYT 291153Z AUTO VRB04KT 10SM CLR M06/M13 A3031 RMK AO2
SLP287 T10611133 11050 21067 53024 $





000
SAUS41 KLWX 291155
MTRNAK
METAR KNAK 291154Z AUTO 30010KT 10SM CLR M03/M12 A3036 RMK AO2
SLP283 T10281117 11006 21033 53026





000
SAUS41 KLWX 291155
MTRNAK
METAR KNAK 291154Z AUTO 30010KT 10SM CLR M03/M12 A3036 RMK AO2
SLP283 T10281117 11006 21033 53026





000
SAUS41 KLWX 291104
MTRRSP
METAR KRSP 291054Z AUTO 10SM CLR M09/M14 A3037 RMK AO2 SLP322
T10891144 $





000
SAUS41 KLWX 291104
MTRRSP
METAR KRSP 291054Z AUTO 10SM CLR M09/M14 A3037 RMK AO2 SLP322
T10891144 $





000
SAUS41 KLWX 291101 COR
MTRDMH
METAR KDMH 291054Z AUTO M03/M14 A3034 RMK AO1 PRESRR SLP275
T10331139





000
SAUS41 KLWX 291101 COR
MTRDMH
METAR KDMH 291054Z AUTO M03/M14 A3034 RMK AO1 PRESRR SLP275
T10331139





000
SAUS41 KLWX 291100
MTRRYT
METAR KRYT 291053Z AUTO 00000KT 10SM CLR M07/M14 A3028 RMK AO2
SLP276 T10671139 $





000
SAUS41 KLWX 291100
MTRRYT
METAR KRYT 291053Z AUTO 00000KT 10SM CLR M07/M14 A3028 RMK AO2
SLP276 T10671139 $





000
SAUS41 KLWX 291056
MTRNAK
METAR KNAK 291054Z AUTO 30007KT 260V330 10SM CLR M03/M12 A3033 RMK
AO2 SLP274 T10331122





000
SAUS41 KLWX 291056
MTRNAK
METAR KNAK 291054Z AUTO 30007KT 260V330 10SM CLR M03/M12 A3033 RMK
AO2 SLP274 T10331122





000
SAUS41 KLWX 291050
MTRRSP
SPECI KRSP 291040Z AUTO 10SM CLR M09/M14 A3055 RMK AO2 $





000
SAUS41 KLWX 291004
MTRRSP
METAR KRSP 290954Z AUTO 10SM CLR M09/M14 A2996 RMK AO2 SLP177
T10891144 $





000
SAUS41 KLWX 291004
MTRRSP
METAR KRSP 290954Z AUTO 10SM CLR M09/M14 A2996 RMK AO2 SLP177
T10891144 $





000
SAUS41 KLWX 291001 COR
MTRDMH
METAR KDMH 290954Z AUTO M03/M14 A3026 RMK AO1 SLP246 T10281144





000
SAUS41 KLWX 291000
MTRRYT
METAR KRYT 290953Z AUTO 00000KT 10SM CLR M06/M14 A3026 RMK AO2
SLP270 T10611139 $





000
SAUS41 KLWX 290955
MTRNAK
METAR KNAK 290954Z AUTO 29009KT 10SM CLR M03/M13 A3031 RMK AO2
SLP264 T10281128





000
SAUS41 KLWX 290920
MTRRSP
SPECI KRSP 290910Z AUTO 10SM CLR M09/M15 A3041 RMK AO2 $





000
SAUS41 KLWX 290920
MTRRSP
SPECI KRSP 290910Z AUTO 10SM CLR M09/M15 A3041 RMK AO2 $





000
SAUS41 KLWX 290904
MTRRSP
METAR KRSP 290854Z AUTO 10SM CLR M09/M14 A3037 RMK AO2 PRESRR SLP318
T10891144 53114 $





000
SAUS41 KLWX 290901 COR
MTRDMH
METAR KDMH 290854Z AUTO M03/M16 A3036 RMK AO1 SLP280 T10281156 53040





000
SAUS41 KLWX 290900
MTRRYT
METAR KRYT 290853Z AUTO VRB03KT 10SM CLR M06/M14 A3024 RMK AO2
SLP262 T10611144 51008 $





000
SAUS41 KLWX 290855
MTRNAK
METAR KNAK 290854Z AUTO 30007KT 10SM CLR M02/M13 A3028 RMK AO2
SLP257 T10221133 51014





000
SAUS41 KLWX 290855
MTRNAK
METAR KNAK 290854Z AUTO 30007KT 10SM CLR M02/M13 A3028 RMK AO2
SLP257 T10221133 51014





000
SAUS41 KLWX 290804
MTRRSP
METAR KRSP 290754Z AUTO 10SM CLR M09/M16 A2998 RMK AO2 SLP186
T10891156 $





000
SAUS41 KLWX 290804
MTRRSP
METAR KRSP 290754Z AUTO 10SM CLR M09/M16 A2998 RMK AO2 SLP186
T10891156 $





000
SAUS41 KLWX 290801 COR
MTRDMH
METAR KDMH 290754Z AUTO M02/M16 A3026 RMK AO1 SLP247 T10221161





000
SAUS41 KLWX 290801 COR
MTRDMH
METAR KDMH 290754Z AUTO M02/M16 A3026 RMK AO1 SLP247 T10221161





000
SAUS41 KLWX 290800
MTRRYT
METAR KRYT 290753Z AUTO 00000KT 10SM CLR M06/M15 A3023 RMK AO2
SLP258 T10561150 $





000
SAUS41 KLWX 290800
MTRRYT
METAR KRYT 290753Z AUTO 00000KT 10SM CLR M06/M15 A3023 RMK AO2
SLP258 T10561150 $





000
SAUS41 KLWX 290755
MTRNAK
METAR KNAK 290754Z AUTO 33011KT 10SM CLR M01/M12 A3027 RMK AO2
SLP252 T10111122





000
SAUS41 KLWX 290755
MTRNAK
METAR KNAK 290754Z AUTO 33011KT 10SM CLR M01/M12 A3027 RMK AO2
SLP252 T10111122





000
SAUS41 KLWX 290728
MTRRSP
SPECI KRSP 290718Z AUTO 10SM CLR M08/M16 A3053 RMK AO2 $





000
SAUS41 KLWX 290728
MTRRSP
SPECI KRSP 290718Z AUTO 10SM CLR M08/M16 A3053 RMK AO2 $





000
SAUS41 KLWX 290704
MTRRSP
METAR KRSP 290654Z AUTO 10SM CLR M08/M16 A3032 RMK AO2 PRESRR SLP302
T10831161 $





000
SAUS41 KLWX 290704
MTRRSP
METAR KRSP 290654Z AUTO 10SM CLR M08/M16 A3032 RMK AO2 PRESRR SLP302
T10831161 $





000
SAUS41 KLWX 290701 COR
MTRDMH
METAR KDMH 290654Z AUTO M02/M16 A3026 RMK AO1 SLP245 T10171161





000
SAUS41 KLWX 290700
MTRRYT
METAR KRYT 290653Z AUTO VRB03KT 10SM CLR M06/M16 A3023 RMK AO2
SLP256 T10561161 $





000
SAUS41 KLWX 290655
MTRNAK
METAR KNAK 290654Z AUTO 34014KT 10SM CLR M01/M11 A3026 RMK AO2
SLP248 T10111111





000
SAUS41 KLWX 290655
MTRNAK
METAR KNAK 290654Z AUTO 34014KT 10SM CLR M01/M11 A3026 RMK AO2
SLP248 T10111111





000
SAUS41 KLWX 290604
MTRRSP
METAR KRSP 290554Z AUTO 10SM CLR M08/M17 A3001 RMK AO2 SLP193
T10781167 11061 21078 58012 $





000
SAUS41 KLWX 290604
MTRRSP
METAR KRSP 290554Z AUTO 10SM CLR M08/M17 A3001 RMK AO2 SLP193
T10781167 11061 21078 58012 $





000
SAUS41 KLWX 290601 COR
MTRDMH
METAR KDMH 290554Z AUTO M02/M16 A3024 RMK AO1 SLP241 T10171161 10000
21017 53015





000
SAUS41 KLWX 290601 COR
MTRDMH
METAR KDMH 290554Z AUTO M02/M16 A3024 RMK AO1 SLP241 T10171161 10000
21017 53015





000
SAUS41 KLWX 290600
MTRRYT
METAR KRYT 290553Z AUTO 00000KT 10SM CLR M05/M17 A3021 RMK AO2
SLP251 T10501167 11028 21050 51012 $





000
SAUS41 KLWX 290600
MTRRYT
METAR KRYT 290553Z AUTO 00000KT 10SM CLR M05/M17 A3021 RMK AO2
SLP251 T10501167 11028 21050 51012 $





000
SAUS41 KLWX 290555
MTRNAK
METAR KNAK 290554Z AUTO 30008G18KT 10SM CLR M01/M13 A3024 RMK AO2
SLP243 T10111128 10000 21011 53011





000
SAUS41 KLWX 290555
MTRNAK
METAR KNAK 290554Z AUTO 30008G18KT 10SM CLR M01/M13 A3024 RMK AO2
SLP243 T10111128 10000 21011 53011





000
SAUS41 KLWX 290526
MTRRSP
SPECI KRSP 290516Z AUTO 10SM CLR M07/M17 A3053 RMK AO2 $





000
SAUS41 KLWX 290526
MTRRSP
SPECI KRSP 290516Z AUTO 10SM CLR M07/M17 A3053 RMK AO2 $





000
SAUS41 KLWX 290504
MTRRSP
METAR KRSP 290454Z AUTO 10SM CLR M07/M17 A3038 RMK AO2 PRESRR SLP319
T10721172 410221078 $





000
SAUS41 KLWX 290504
MTRRSP
METAR KRSP 290454Z AUTO 10SM CLR M07/M17 A3038 RMK AO2 PRESRR SLP319
T10721172 410221078 $





000
SAUS41 KLWX 290502 COR
MTRDMH
METAR KDMH 290454Z AUTO M01/M14 A3023 RMK AO1 SLP235 T10111144
400501011





000
SAUS41 KLWX 290502 COR
MTRDMH
METAR KDMH 290454Z AUTO M01/M14 A3023 RMK AO1 SLP235 T10111144
400501011





000
SAUS41 KLWX 290501
MTRRYT
METAR KRYT 290453Z AUTO VRB05KT 10SM CLR M04/M18 A3021 RMK AO2
SLP250 T10441178 400001050 $





000
SAUS41 KLWX 290501
MTRRYT
METAR KRYT 290453Z AUTO VRB05KT 10SM CLR M04/M18 A3021 RMK AO2
SLP250 T10441178 400001050 $





000
SAUS41 KLWX 290456
MTRNAK
METAR KNAK 290454Z AUTO 30008KT 10SM CLR M01/M12 A3023 RMK AO2
SLP238 T10111122 400561011





000
SAUS41 KLWX 290456
MTRNAK
METAR KNAK 290454Z AUTO 30008KT 10SM CLR M01/M12 A3023 RMK AO2
SLP238 T10111122 400561011





000
SAUS41 KLWX 290404
MTRRSP
METAR KRSP 290354Z AUTO 10SM CLR M07/M18 A3024 RMK AO2 SLP274
T10671178 $





000
SAUS41 KLWX 290404
MTRRSP
METAR KRSP 290354Z AUTO 10SM CLR M07/M18 A3024 RMK AO2 SLP274
T10671178 $





000
SAUS41 KLWX 290401 COR
MTRDMH
METAR KDMH 290354Z AUTO M01/M14 A3021 RMK AO1 SLP231 T10111139





000
SAUS41 KLWX 290400
MTRRYT
METAR KRYT 290353Z AUTO 01006KT 10SM CLR M04/M18 A3019 RMK AO2
SLP245 T10391183 $





000
SAUS41 KLWX 290400
MTRRYT
METAR KRYT 290353Z AUTO 01006KT 10SM CLR M04/M18 A3019 RMK AO2
SLP245 T10391183 $





000
SAUS41 KLWX 290355
MTRNAK
METAR KNAK 290354Z AUTO 31007KT 10SM CLR M01/M12 A3022 RMK AO2
SLP235 T10111117





000
SAUS41 KLWX 290340
MTRRSP
SPECI KRSP 290330Z AUTO 10SM CLR M07/M18 A3064 RMK AO2 $





000
SAUS41 KLWX 290315
MTRRYT
METAR KRYT 290253Z AUTO VRB05G18KT 10SM CLR M03/M17 A3018 RMK AO2
SLP240 T10331172 51029 $





000
SAUS41 KLWX 290315
MTRRYT
METAR KRYT 290253Z AUTO VRB05G18KT 10SM CLR M03/M17 A3018 RMK AO2
SLP240 T10331172 51029 $





000
SAUS41 KLWX 290309 COR
MTRDMH
METAR KDMH 290254Z AUTO M01/M13 A3020 RMK AO1 SLP226 T10111133 51027





000
SAUS41 KLWX 290304
MTRRSP
METAR KRSP 290254Z AUTO 10SM CLR M07/M16 A3005 RMK AO2 PRESRR SLP207
T10671156 51104 $





000
SAUS41 KLWX 290304
MTRRSP
METAR KRSP 290254Z AUTO 10SM CLR M07/M16 A3005 RMK AO2 PRESRR SLP207
T10671156 51104 $





000
SAUS41 KLWX 290255
MTRNAK
METAR KNAK 290254Z AUTO 29007KT 10SM CLR M01/M12 A3021 RMK AO2
SLP232 T10111117 51024





000
SAUS41 KLWX 290204
MTRRSP
METAR KRSP 290154Z AUTO 10SM CLR M06/M14 A2967 RMK AO2 PRESFR SLP078
T10611144 $





000
SAUS41 KLWX 290202 COR
MTRDMH
METAR KDMH 290154Z AUTO M01/M13 A3018 RMK AO1 SLP220 T10061133





000
SAUS41 KLWX 290200
MTRRYT
METAR KRYT 290153Z AUTO VRB06KT 10SM CLR M03/M13 A3015 RMK AO2
SLP230 T10331133 $





000
SAUS41 KLWX 290200
MTRRYT
METAR KRYT 290153Z AUTO VRB06KT 10SM CLR M03/M13 A3015 RMK AO2
SLP230 T10331133 $





000
SAUS41 KLWX 290155
MTRNAK
METAR KNAK 290154Z AUTO 29009KT 10SM CLR M01/M12 A3020 RMK AO2
SLP227 T10061117





000
SAUS41 KLWX 290155
MTRNAK
METAR KNAK 290154Z AUTO 29009KT 10SM CLR M01/M12 A3020 RMK AO2
SLP227 T10061117





000
SAUS41 KLWX 290104
MTRRSP
METAR KRSP 290054Z AUTO 10SM CLR M06/M14 A3023 RMK AO2 SLP270
T10611139 $





000
SAUS41 KLWX 290104
MTRRSP
METAR KRSP 290054Z AUTO 10SM CLR M06/M14 A3023 RMK AO2 SLP270
T10611139 $





000
SAUS41 KLWX 290102
MTRRYT
METAR KRYT 290053Z AUTO VRB03KT 10SM CLR M03/M13 A3012 RMK AO2
SLP222 T10331133 $





000
SAUS41 KLWX 290102 COR
MTRDMH
METAR KDMH 290054Z AUTO M01/M14 A3016 RMK AO1 SLP212 T10061139





000
SAUS41 KLWX 290102
MTRRYT
METAR KRYT 290053Z AUTO VRB03KT 10SM CLR M03/M13 A3012 RMK AO2
SLP222 T10331133 $





000
SAUS41 KLWX 290102 COR
MTRDMH
METAR KDMH 290054Z AUTO M01/M14 A3016 RMK AO1 SLP212 T10061139





000
SAUS41 KLWX 290055
MTRNAK
METAR KNAK 290054Z AUTO 30010G17KT 10SM CLR M01/M12 A3017 RMK AO2
SLP219 T10061122





000
SAUS41 KLWX 290055
MTRRSP
SPECI KRSP 290045Z AUTO 10SM CLR M06/M13 A3034 RMK AO2 $





000
SAUS41 KLWX 290055
MTRRSP
SPECI KRSP 290045Z AUTO 10SM CLR M06/M13 A3034 RMK AO2 $





000
SAUS41 KLWX 290055
MTRNAK
METAR KNAK 290054Z AUTO 30010G17KT 10SM CLR M01/M12 A3017 RMK AO2
SLP219 T10061122





000
SAUS41 KLWX 290004
MTRRSP
METAR KRSP 282354Z AUTO 10SM CLR M06/M14 A2972 RMK AO2 SLP096 60000
T10611139 11022 21061 58193 $





000
SAUS41 KLWX 290004
MTRRSP
METAR KRSP 282354Z AUTO 10SM CLR M06/M14 A2972 RMK AO2 SLP096 60000
T10611139 11022 21061 58193 $





000
SAUS41 KLWX 290000
MTRRYT
METAR KRYT 282353Z AUTO VRB04KT 10SM CLR M03/M15 A3009 RMK AO2
SLP210 T10281150 11006 21028 52026 $





000
SAUS41 KLWX 290000
MTRDMH
METAR KDMH 282354Z AUTO 00/M14 A3012 RMK AO1 SLP199 T00001139 10017
20000 53023





000
SAUS41 KLWX 290000
MTRDMH
METAR KDMH 282354Z AUTO 00/M14 A3012 RMK AO1 SLP199 T00001139 10017
20000 53023





000
SAUS41 KLWX 290000
MTRRYT
METAR KRYT 282353Z AUTO VRB04KT 10SM CLR M03/M15 A3009 RMK AO2
SLP210 T10281150 11006 21028 52026 $





000
SAUS41 KLWX 282355
MTRNAK
METAR KNAK 282354Z AUTO 30012G19KT 10SM CLR 00/M12 A3014 RMK AO2
SLP208 T00001122 10017 20000 53035





000
SAUS41 KLWX 282355
MTRNAK
METAR KNAK 282354Z AUTO 30012G19KT 10SM CLR 00/M12 A3014 RMK AO2
SLP208 T00001122 10017 20000 53035





000
SAUS41 KLWX 282315
MTRRSP
SPECI KRSP 282305Z AUTO 10SM BKN039 M06/M14 A3032 RMK AO2 $





000
SAUS41 KLWX 282315
MTRRSP
SPECI KRSP 282305Z AUTO 10SM BKN039 M06/M14 A3032 RMK AO2 $





000
SAUS41 KLWX 282304
MTRRSP
METAR KRSP 282254Z AUTO 10SM BKN041 M06/M14 A3033 RMK AO2 PRESRR
SLP305 T10561144 $





000
SAUS41 KLWX 282304
MTRRSP
METAR KRSP 282254Z AUTO 10SM BKN041 M06/M14 A3033 RMK AO2 PRESRR
SLP305 T10561144 $





000
SAUS41 KLWX 282301 COR
MTRDMH
METAR KDMH 282254Z AUTO 01/M14 A3008 RMK AO1 SLP187 T00061139





000
SAUS41 KLWX 282301 COR
MTRDMH
METAR KDMH 282254Z AUTO 01/M14 A3008 RMK AO1 SLP187 T00061139





000
SAUS41 KLWX 282300
MTRRYT
METAR KRYT 282253Z AUTO 33010G14KT 300V010 10SM FEW050 M02/M15 A3007
RMK AO2 SLP202 T10221150 $





000
SAUS41 KLWX 282300
MTRRYT
METAR KRYT 282253Z AUTO 33010G14KT 300V010 10SM FEW050 M02/M15 A3007
RMK AO2 SLP202 T10221150 $





000
SAUS41 KLWX 282255
MTRNAK
METAR KNAK 282254Z AUTO 30014G21KT 10SM SCT065 BKN080 01/M11 A3010
RMK AO2 SLP194 T00061106





000
SAUS41 KLWX 282255
MTRNAK
METAR KNAK 282254Z AUTO 30014G21KT 10SM SCT065 BKN080 01/M11 A3010
RMK AO2 SLP194 T00061106





000
SAUS41 KLWX 282203
MTRRSP
METAR KRSP 282154Z AUTO 10SM OVC045 M05/M14 A2988 RMK AO2 SLP149
T10501144 $





000
SAUS41 KLWX 282201 COR
MTRDMH
METAR KDMH 282154Z AUTO 01/M13 A3005 RMK AO1 SLP175 T00111128





000
SAUS41 KLWX 282200
MTRRYT
METAR KRYT 282153Z AUTO 30008KT 10SM BKN050 M02/M14 A3003 RMK AO2
SLP188 T10221139 $





000
SAUS41 KLWX 282200
MTRRYT
METAR KRYT 282153Z AUTO 30008KT 10SM BKN050 M02/M14 A3003 RMK AO2
SLP188 T10221139 $





000
SAUS41 KLWX 282155
MTRNAK
METAR KNAK 282154Z AUTO 30011G19KT 10SM FEW050 SCT060 OVC080 01/M09
A3007 RMK AO2 SLP183 T00061094





000
SAUS41 KLWX 282125
MTRRSP
SPECI KRSP 282115Z AUTO 10SM OVC047 M04/M14 A3048 RMK AO2 $





000
SAUS41 KLWX 282104
MTRRSP
METAR KRSP 282054Z AUTO 10SM OVC047 M04/M14 A3032 RMK AO2 PRESRR
SLP301 60000 T10441139 53144 $





000
SAUS41 KLWX 282104
MTRRSP
METAR KRSP 282054Z AUTO 10SM OVC047 M04/M14 A3032 RMK AO2 PRESRR
SLP301 60000 T10441139 53144 $





000
SAUS41 KLWX 282101 COR
MTRDMH
METAR KDMH 282054Z AUTO 02/M12 A3005 RMK AO1 SLP175 T00171117 53020





000
SAUS41 KLWX 282100
MTRRYT
METAR KRYT 282053Z AUTO 32007G20KT 260V360 10SM OVC055 M02/M14 A3001
RMK AO2 SLP181 T10171144 53012 $





000
SAUS41 KLWX 282055
MTRNAK
METAR KNAK 282054Z AUTO 31014G18KT 10SM FEW055 BKN075 OVC090 01/M09
A3004 RMK AO2 SLP173 T00111089 53016





000
SAUS41 KLWX 282004
MTRRSP
METAR KRSP 281954Z AUTO 10SM BKN041 BKN049 OVC055 M03/M14 A2984 RMK
AO2 SLP134 T10331139 $





000
SAUS41 KLWX 282001 COR
MTRDMH
METAR KDMH 281954Z AUTO 01/M09 A3001 RMK AO1 SLP162 T00061089





000
SAUS41 KLWX 282000
MTRRYT
METAR KRYT 281953Z AUTO 33010G19KT 290V360 10SM BKN050 OVC060
M02/M14 A2999 RMK AO2 SLP173 T10171139 $





000
SAUS41 KLWX 281955
MTRNAK
METAR KNAK 281954Z AUTO 29011G20KT 10SM BKN050 OVC070 01/M09 A3001
RMK AO2 SLP165 T00111089





000
SAUS41 KLWX 281904
MTRRSP
METAR KRSP 281854Z AUTO 9SM BKN030 OVC037 M04/M13 A2988 RMK AO2
SNB26E41 SLP145 P0000 T10391128 $





000
SAUS41 KLWX 281904
MTRRSP
METAR KRSP 281854Z AUTO 9SM BKN030 OVC037 M04/M13 A2988 RMK AO2
SNB26E41 SLP145 P0000 T10391128 $





000
SAUS41 KLWX 281901 COR
MTRDMH
METAR KDMH 281854Z AUTO 02/M10 A3000 RMK AO1 SLP159 T00171100





000
SAUS41 KLWX 281901 COR
MTRDMH
METAR KDMH 281854Z AUTO 02/M10 A3000 RMK AO1 SLP159 T00171100





000
SAUS41 KLWX 281900
MTRRYT
METAR KRYT 281853Z AUTO 30008G14KT 260V350 10SM SCT043 OVC050
M01/M12 A2998 RMK AO2 SLP167 T10061122 $





000
SAUS41 KLWX 281900
MTRRYT
METAR KRYT 281853Z AUTO 30008G14KT 260V350 10SM SCT043 OVC050
M01/M12 A2998 RMK AO2 SLP167 T10061122 $





000
SAUS41 KLWX 281855
MTRNAK
METAR KNAK 281854Z AUTO 31013KT 10SM OVC060 01/M09 A3000 RMK AO2
SLP160 T00111089





000
SAUS41 KLWX 281855
MTRNAK
METAR KNAK 281854Z AUTO 31013KT 10SM OVC060 01/M09 A3000 RMK AO2
SLP160 T00111089





000
SAUS41 KLWX 281804
MTRRSP
METAR KRSP 281754Z AUTO 9SM OVC035 M03/M12 A2988 RMK AO2 SLP144
T10281117 11022 21072 55049 $





000
SAUS41 KLWX 281804
MTRRSP
METAR KRSP 281754Z AUTO 9SM OVC035 M03/M12 A2988 RMK AO2 SLP144
T10281117 11022 21072 55049 $





000
SAUS41 KLWX 281801 COR
MTRDMH
METAR KDMH 281754Z AUTO 01/M11 A2999 RMK AO1 SLP155 T00111106 10017
21011 58002





000
SAUS41 KLWX 281801 COR
MTRDMH
METAR KDMH 281754Z AUTO 01/M11 A2999 RMK AO1 SLP155 T00111106 10017
21011 58002





000
SAUS41 KLWX 281800
MTRRYT
METAR KRYT 281753Z AUTO VRB06G22KT 10SM OVC043 M01/M11 A2998 RMK AO2
SLP167 T10061111 11006 21050 55000 $





000
SAUS41 KLWX 281800
MTRRYT
METAR KRYT 281753Z AUTO VRB06G22KT 10SM OVC043 M01/M11 A2998 RMK AO2
SLP167 T10061111 11006 21050 55000 $





000
SAUS41 KLWX 281755
MTRNAK
METAR KNAK 281754Z AUTO 32012KT 10SM OVC055 01/M09 A2999 RMK AO2
SLP157 T00111089 10017 20000 53003





000
SAUS41 KLWX 281755
MTRNAK
METAR KNAK 281754Z AUTO 32012KT 10SM OVC055 01/M09 A2999 RMK AO2
SLP157 T00111089 10017 20000 53003





000
SAUS41 KLWX 281739
MTRRSP
SPECI KRSP 281730Z AUTO 10SM OVC031 M03/M12 A2987 RMK AO2 $





000
SAUS41 KLWX 281739
MTRRSP
SPECI KRSP 281730Z AUTO 10SM OVC031 M03/M12 A2987 RMK AO2 $





000
SAUS41 KLWX 281704
MTRRSP
METAR KRSP 281654Z AUTO 8SM BKN029 BKN035 OVC065 M03/M12 A2986 RMK
AO2 SLP138 T10331122 $





000
SAUS41 KLWX 281704
MTRRSP
METAR KRSP 281654Z AUTO 8SM BKN029 BKN035 OVC065 M03/M12 A2986 RMK
AO2 SLP138 T10331122 $





000
SAUS41 KLWX 281701 COR
MTRDMH
METAR KDMH 281654Z AUTO 01/M10 A3000 RMK AO1 SLP157 T00111100





000
SAUS41 KLWX 281701 COR
MTRDMH
METAR KDMH 281654Z AUTO 01/M10 A3000 RMK AO1 SLP157 T00111100





000
SAUS41 KLWX 281700
MTRRYT
METAR KRYT 281653Z AUTO 34008G16KT 300V360 10SM BKN038 OVC075
M02/M12 A2997 RMK AO2 SLP165 T10171117 $





000
SAUS41 KLWX 281700
MTRRYT
METAR KRYT 281653Z AUTO 34008G16KT 300V360 10SM BKN038 OVC075
M02/M12 A2997 RMK AO2 SLP165 T10171117 $





000
SAUS41 KLWX 281655
MTRNAK
METAR KNAK 281654Z AUTO 31011G20KT 10SM BKN050 BKN055 OVC070 01/M09
A2998 RMK AO2 PK WND 33026/1621 SLP155 T00061089





000
SAUS41 KLWX 281655
MTRNAK
METAR KNAK 281654Z AUTO 31011G20KT 10SM BKN050 BKN055 OVC070 01/M09
A2998 RMK AO2 PK WND 33026/1621 SLP155 T00061089





000
SAUS41 KLWX 281604
MTRRSP
METAR KRSP 281554Z AUTO 10SM BKN025 OVC050 M04/M12 A2987 RMK AO2
SLP140 T10441122 $





000
SAUS41 KLWX 281604
MTRRSP
METAR KRSP 281554Z AUTO 10SM BKN025 OVC050 M04/M12 A2987 RMK AO2
SLP140 T10441122 $





000
SAUS41 KLWX 281601 COR
MTRDMH
METAR KDMH 281554Z AUTO 00/M10 A3001 RMK AO1 SLP160 T00001100





000
SAUS41 KLWX 281601 COR
MTRDMH
METAR KDMH 281554Z AUTO 00/M10 A3001 RMK AO1 SLP160 T00001100





000
SAUS41 KLWX 281600
MTRRYT
METAR KRYT 281553Z AUTO 28008G15KT 250V320 10SM SCT035 OVC050
M03/M11 A2997 RMK AO2 SLP165 T10281111 $





000
SAUS41 KLWX 281555
MTRNAK
METAR KNAK 281554Z AUTO 30012G22KT 10SM BKN055 OVC070 00/M09 A2999
RMK AO2 SLP155 T00001094





000
SAUS41 KLWX 281546
MTRRSP
SPECI KRSP 281536Z AUTO 10SM BKN027 OVC043 M04/M12 A2987 RMK AO2 $





000
SAUS41 KLWX 281546
MTRRSP
SPECI KRSP 281536Z AUTO 10SM BKN027 OVC043 M04/M12 A2987 RMK AO2 $





000
SAUS41 KLWX 281504
MTRRSP
METAR KRSP 281454Z AUTO 10SM BKN049 OVC060 M06/M13 A3003 RMK AO2
SLP196 T10561128 55059 $





000
SAUS41 KLWX 281501 COR
MTRDMH
METAR KDMH 281454Z AUTO M01/M11 A3000 RMK AO1 SLP157 T10061111 53022





000
SAUS41 KLWX 281500
MTRRYT
METAR KRYT 281453Z AUTO 34008G20KT 10SM FEW035 SCT050 OVC060 M03/M12
A2998 RMK AO2 SLP167 T10331122 51023 $





000
SAUS41 KLWX 281500
MTRRYT
METAR KRYT 281453Z AUTO 34008G20KT 10SM FEW035 SCT050 OVC060 M03/M12
A2998 RMK AO2 SLP167 T10331122 51023 $





000
SAUS41 KLWX 281455
MTRNAK
METAR KNAK 281454Z AUTO 31011G22KT 10SM OVC070 01/M11 A2998 RMK AO2
SLP154 T00061111 51019





000
SAUS41 KLWX 281455
MTRNAK
METAR KNAK 281454Z AUTO 31011G22KT 10SM OVC070 01/M11 A2998 RMK AO2
SLP154 T00061111 51019





000
SAUS41 KLWX 281443
MTRRSP
SPECI KRSP 281433Z AUTO 10SM OVC045 M07/M13 A3001 RMK AO2 $





000
SAUS41 KLWX 281404
MTRRSP
METAR KRSP 281354Z AUTO 6SM HZ BKN041 OVC050 M07/M14 A2959 RMK AO2
PRESFR SLP048 T10721139 $





000
SAUS41 KLWX 281404
MTRRSP
METAR KRSP 281354Z AUTO 6SM HZ BKN041 OVC050 M07/M14 A2959 RMK AO2
PRESFR SLP048 T10721139 $





000
SAUS41 KLWX 281401 COR
MTRDMH
METAR KDMH 281354Z AUTO M01/M11 A2997 RMK AO1 SLP149 T10111106





000
SAUS41 KLWX 281401 COR
MTRDMH
METAR KDMH 281354Z AUTO M01/M11 A2997 RMK AO1 SLP149 T10111106





000
SAUS41 KLWX 281400
MTRRYT
METAR KRYT 281353Z AUTO VRB06G18KT 10SM OVC046 M05/M13 A2995 RMK AO2
SLP159 T10501133 $





000
SAUS41 KLWX 281355
MTRNAK
METAR KNAK 281354Z AUTO 31014G23KT 10SM OVC055 01/M12 A2997 RMK AO2
SLP151 T00061122





000
SAUS41 KLWX 281355
MTRNAK
METAR KNAK 281354Z AUTO 31014G23KT 10SM OVC055 01/M12 A2997 RMK AO2
SLP151 T00061122





000
SAUS41 KLWX 281304
MTRRSP
METAR KRSP 281254Z AUTO 10SM OVC055 M07/M14 A3018 RMK AO2 SLP248
T10721144 $





000
SAUS41 KLWX 281304
MTRRSP
METAR KRSP 281254Z AUTO 10SM OVC055 M07/M14 A3018 RMK AO2 SLP248
T10721144 $





000
SAUS41 KLWX 281302 COR
MTRDMH
METAR KDMH 281254Z AUTO M01/M09 A2995 RMK AO1 SLP141 T10061089





000
SAUS41 KLWX 281302 COR
MTRDMH
METAR KDMH 281254Z AUTO M01/M09 A2995 RMK AO1 SLP141 T10061089





000
SAUS41 KLWX 281301
MTRRSP
SPECI KRSP 281251Z AUTO 10SM OVC055 M07/M14 A3021 RMK AO2 $





000
SAUS41 KLWX 281301
MTRRSP
SPECI KRSP 281251Z AUTO 10SM OVC055 M07/M14 A3021 RMK AO2 $





000
SAUS41 KLWX 281300
MTRRYT
METAR KRYT 281253Z AUTO 27008G17KT 240V310 10SM OVC065 M04/M14 A2994
RMK AO2 SLP154 T10441144 $





000
SAUS41 KLWX 281300
MTRRYT
METAR KRYT 281253Z AUTO 27008G17KT 240V310 10SM OVC065 M04/M14 A2994
RMK AO2 SLP154 T10441144 $





000
SAUS41 KLWX 281255
MTRNAK
METAR KNAK 281254Z AUTO 30014G21KT 10SM BKN050 OVC060 00/M09 A2995
RMK AO2 SLP145 T00001089





000
SAUS41 KLWX 281255
MTRNAK
METAR KNAK 281254Z AUTO 30014G21KT 10SM BKN050 OVC060 00/M09 A2995
RMK AO2 SLP145 T00001089





000
SAUS41 KLWX 281203
MTRRSP
METAR KRSP 281154Z AUTO 10SM BKN050 M07/M14 A2956 RMK AO2 SLP035
T10721144 11033 21078 58019 $





000
SAUS41 KLWX 281203
MTRRSP
METAR KRSP 281154Z AUTO 10SM BKN050 M07/M14 A2956 RMK AO2 SLP035
T10721144 11033 21078 58019 $





000
SAUS41 KLWX 281201 COR
MTRDMH
METAR KDMH 281154Z AUTO 00/M10 A2993 RMK AO1 SLP136 70001 T00001100
10039 20000 53030





000
SAUS41 KLWX 281201 COR
MTRDMH
METAR KDMH 281154Z AUTO 00/M10 A2993 RMK AO1 SLP136 70001 T00001100
10039 20000 53030





000
SAUS41 KLWX 281200
MTRRYT
METAR KRYT 281153Z AUTO 27007KT 10SM OVC060 M04/M14 A2991 RMK AO2
SLP143 T10441139 11006 21044 53021 $





000
SAUS41 KLWX 281200
MTRRYT
METAR KRYT 281153Z AUTO 27007KT 10SM OVC060 M04/M14 A2991 RMK AO2
SLP143 T10441139 11006 21044 53021 $





000
SAUS41 KLWX 281155
MTRNAK
METAR KNAK 281154Z AUTO 31012G23KT 10SM BKN049 01/M08 A2992 RMK AO2
SLP135 70007 T00061083 10044 20006 53028





000
SAUS41 KLWX 281155
MTRNAK
METAR KNAK 281154Z AUTO 31012G23KT 10SM BKN049 01/M08 A2992 RMK AO2
SLP135 70007 T00061083 10044 20006 53028





000
SAUS41 KLWX 281124
MTRRSP
SPECI KRSP 281115Z AUTO 10SM CLR M07/M14 A3007 RMK AO2 $





000
SAUS41 KLWX 281103
MTRRSP
METAR KRSP 281054Z AUTO 10SM CLR M07/M14 A2994 RMK AO2 PRESRR SLP165
T10721139 $





000
SAUS41 KLWX 281103
MTRRSP
METAR KRSP 281054Z AUTO 10SM CLR M07/M14 A2994 RMK AO2 PRESRR SLP165
T10721139 $





000
SAUS41 KLWX 281101 COR
MTRDMH
METAR KDMH 281054Z AUTO 01/M09 A2989 RMK AO1 SLP120 T00061089





000
SAUS41 KLWX 281101 COR
MTRDMH
METAR KDMH 281054Z AUTO 01/M09 A2989 RMK AO1 SLP120 T00061089





000
SAUS41 KLWX 281100
MTRRYT
METAR KRYT 281053Z AUTO 29009G19KT 260V330 10SM OVC055 M04/M13 A2988
RMK AO2 SLP133 T10441128 $





000
SAUS41 KLWX 281100
MTRRYT
METAR KRYT 281053Z AUTO 29009G19KT 260V330 10SM OVC055 M04/M13 A2988
RMK AO2 SLP133 T10441128 $





000
SAUS41 KLWX 281055
MTRNAK
METAR KNAK 281054Z AUTO 30012G18KT 10SM SCT043 BKN110 01/M07 A2989
RMK AO2 SLP123 T00111072





000
SAUS41 KLWX 281055
MTRNAK
METAR KNAK 281054Z AUTO 30012G18KT 10SM SCT043 BKN110 01/M07 A2989
RMK AO2 SLP123 T00111072





000
SAUS41 KLWX 281004
MTRRSP
METAR KRSP 280954Z AUTO 10SM CLR M06/M12 A2982 RMK AO2 SLP122
T10611117 $





000
SAUS41 KLWX 281001 COR
MTRDMH
METAR KDMH 280954Z AUTO 02/M08 A2987 RMK AO1 SLP115 T00171083





000
SAUS41 KLWX 281000
MTRRYT
METAR KRYT 280953Z AUTO 31011G20KT 10SM SCT055 BKN100 M03/M11 A2986
RMK AO2 SLP123 T10281111 $





000
SAUS41 KLWX 281000
MTRRYT
METAR KRYT 280953Z AUTO 31011G20KT 10SM SCT055 BKN100 M03/M11 A2986
RMK AO2 SLP123 T10281111 $





000
SAUS41 KLWX 280955
MTRNAK
METAR KNAK 280954Z AUTO 32011KT 10SM OVC090 02/M07 A2987 RMK AO2
SLP116 T00221067





000
SAUS41 KLWX 280940
MTRRSP
SPECI KRSP 280930Z AUTO 10SM FEW090 M06/M11 A3014 RMK AO2 $





000
SAUS41 KLWX 280903
MTRRSP
METAR KRSP 280854Z AUTO 10SM FEW090 M05/M11 A2962 RMK AO2 PRESRR
SLP051 T10501106 55026 $





000
SAUS41 KLWX 280901 COR
MTRDMH
METAR KDMH 280854Z AUTO 02/M09 A2984 RMK AO1 SLP106 T00171089 51005





000
SAUS41 KLWX 280900
MTRRYT
METAR KRYT 280853Z AUTO 01007KT 10SM OVC100 M02/M11 A2984 RMK AO2
SLP118 T10221106 53005 $





000
SAUS41 KLWX 280855
MTRNAK
METAR KNAK 280854Z AUTO 31010G17KT 10SM OVC085 02/M06 A2984 RMK AO2
SLP107 T00221061 50007





000
SAUS41 KLWX 280803
MTRRSP
METAR KRSP 280754Z AUTO 10SM FEW080 BKN100 OVC110 M04/M09 A2948 RMK
AO2 PRESFR SLP002 T10391089 $





000
SAUS41 KLWX 280803
MTRRSP
METAR KRSP 280754Z AUTO 10SM FEW080 BKN100 OVC110 M04/M09 A2948 RMK
AO2 PRESFR SLP002 T10391089 $





000
SAUS41 KLWX 280801 COR
MTRDMH
METAR KDMH 280754Z AUTO 02/M08 A2984 RMK AO1 SLP105 T00221083





000
SAUS41 KLWX 280801 COR
MTRDMH
METAR KDMH 280754Z AUTO 02/M08 A2984 RMK AO1 SLP105 T00221083





000
SAUS41 KLWX 280800
MTRRYT
METAR KRYT 280753Z AUTO 36007KT 330V050 10SM SCT036 OVC095 M01/M09
A2984 RMK AO2 SLP114 T10111089 $





000
SAUS41 KLWX 280800
MTRRYT
METAR KRYT 280753Z AUTO 36007KT 330V050 10SM SCT036 OVC095 M01/M09
A2984 RMK AO2 SLP114 T10111089 $





000
SAUS41 KLWX 280755
MTRNAK
METAR KNAK 280754Z AUTO 32017G23KT 10SM BKN070 OVC090 03/M06 A2984
RMK AO2 SLP108 T00281061





000
SAUS41 KLWX 280755
MTRNAK
METAR KNAK 280754Z AUTO 32017G23KT 10SM BKN070 OVC090 03/M06 A2984
RMK AO2 SLP108 T00281061





000
SAUS41 KLWX 280703
MTRRSP
METAR KRSP 280654Z AUTO 10SM OVC085 M03/M10 A2981 RMK AO2 SLP115
T10331100 $





000
SAUS41 KLWX 280701 COR
MTRDMH
METAR KDMH 280654Z AUTO 03/M07 A2984 RMK AO1 SLP103 T00331072





000
SAUS41 KLWX 280700
MTRRYT
METAR KRYT 280653Z AUTO 00000KT 10SM OVC090 M01/M09 A2983 RMK AO2
SLP112 T10061094 $





000
SAUS41 KLWX 280655
MTRNAK
METAR KNAK 280654Z AUTO 32012KT 10SM BKN065 04/M06 A2984 RMK AO2
SLP105 T00391056





000
SAUS41 KLWX 280603
MTRRSP
METAR KRSP 280554Z AUTO 10SM OVC090 M03/M09 A2970 RMK AO2 SLP078
T10331094 10022 21033 58013 $





000
SAUS41 KLWX 280603
MTRRSP
METAR KRSP 280554Z AUTO 10SM OVC090 M03/M09 A2970 RMK AO2 SLP078
T10331094 10022 21033 58013 $





000
SAUS41 KLWX 280601 COR
MTRDMH
METAR KDMH 280554Z AUTO 04/M07 A2983 RMK AO1 SLP100 T00391067 10089
20039 51006





000
SAUS41 KLWX 280601 COR
MTRDMH
METAR KDMH 280554Z AUTO 04/M07 A2983 RMK AO1 SLP100 T00391067 10089
20039 51006





000
SAUS41 KLWX 280600
MTRRYT
METAR KRYT 280553Z AUTO VRB06KT 10SM OVC100 M01/M10 A2983 RMK AO2
SLP112 T10061100 10050 21006 56003 $





000
SAUS41 KLWX 280600
MTRRYT
METAR KRYT 280553Z AUTO VRB06KT 10SM OVC100 M01/M10 A2983 RMK AO2
SLP112 T10061100 10050 21006 56003 $





000
SAUS41 KLWX 280555
MTRNAK
METAR KNAK 280554Z AUTO 33014KT 10SM CLR 04/M04 A2982 RMK AO2 PK WND
34028/0540 SLP100 T00441039 10067 20044 51004





000
SAUS41 KLWX 280555
MTRNAK
METAR KNAK 280554Z AUTO 33014KT 10SM CLR 04/M04 A2982 RMK AO2 PK WND
34028/0540 SLP100 T00441039 10067 20044 51004





000
SAUS41 KLWX 280504
MTRRSP
METAR KRSP 280454Z AUTO 10SM CLR M03/M08 A2973 RMK AO2 PRESFR SLP087
T10281078 400561028 $





000
SAUS41 KLWX 280504
MTRRSP
METAR KRSP 280454Z AUTO 10SM CLR M03/M08 A2973 RMK AO2 PRESFR SLP087
T10281078 400561028 $





000
SAUS41 KLWX 280501 COR
MTRDMH
METAR KDMH 280454Z AUTO 05/M06 A2982 RMK AO1 SLP098 T00501056
401000050





000
SAUS41 KLWX 280501 COR
MTRDMH
METAR KDMH 280454Z AUTO 05/M06 A2982 RMK AO1 SLP098 T00501056
401000050





000
SAUS41 KLWX 280500
MTRRYT
METAR KRYT 280453Z AUTO VRB05KT 10SM CLR 00/M08 A2983 RMK AO2 SLP113
T00001078 400780000 $





000
SAUS41 KLWX 280500
MTRRYT
METAR KRYT 280453Z AUTO VRB05KT 10SM CLR 00/M08 A2983 RMK AO2 SLP113
T00001078 400780000 $





000
SAUS41 KLWX 280455
MTRNAK
METAR KNAK 280454Z AUTO 34013G21KT 10SM CLR 06/M03 A2982 RMK AO2
SLP099 T00561033 400890050





000
SAUS41 KLWX 280455
MTRNAK
METAR KNAK 280454Z AUTO 34013G21KT 10SM CLR 06/M03 A2982 RMK AO2
SLP099 T00561033 400890050





000
SAUS41 KLWX 280403
MTRRSP
METAR KRSP 280354Z AUTO 10SM CLR M02/M07 A2972 RMK AO2 PRESFR SLP086
T10171067 $





000
SAUS41 KLWX 280401 COR
MTRDMH
METAR KDMH 280354Z AUTO 07/M06 A2982 RMK AO1 SLP098 T00671056





000
SAUS41 KLWX 280400
MTRRYT
METAR KRYT 280353Z AUTO VRB04KT 10SM CLR 02/M07 A2983 RMK AO2 SLP112
T00171067 $





000
SAUS41 KLWX 280400
MTRRYT
METAR KRYT 280353Z AUTO VRB04KT 10SM CLR 02/M07 A2983 RMK AO2 SLP112
T00171067 $





000
SAUS41 KLWX 280355
MTRNAK
METAR KNAK 280354Z AUTO 33009KT 10SM CLR 07/M03 A2982 RMK AO2 SLP098
T00671028





000
SAUS41 KLWX 280304
MTRRSP
METAR KRSP 280254Z AUTO 10SM OVC048 M01/M06 A2974 RMK AO2 SLP091
T10061056 50006 $





000
SAUS41 KLWX 280304
MTRRSP
METAR KRSP 280254Z AUTO 10SM OVC048 M01/M06 A2974 RMK AO2 SLP091
T10061056 50006 $





000
SAUS41 KLWX 280302 COR
MTRDMH
METAR KDMH 280254Z AUTO 07/M06 A2981 RMK AO1 SLP094 T00721056 50006





000
SAUS41 KLWX 280302 COR
MTRDMH
METAR KDMH 280254Z AUTO 07/M06 A2981 RMK AO1 SLP094 T00721056 50006





000
SAUS41 KLWX 280300
MTRRYT
METAR KRYT 280253Z AUTO 32009G16KT 10SM OVC060 02/M05 A2984 RMK AO2
SLP114 T00221050 51018 $





000
SAUS41 KLWX 280255
MTRNAK
METAR KNAK 280254Z AUTO 33009KT 10SM FEW110 07/M02 A2981 RMK AO2
SLP096 T00671022 50006





000
SAUS41 KLWX 280255
MTRNAK
METAR KNAK 280254Z AUTO 33009KT 10SM FEW110 07/M02 A2981 RMK AO2
SLP096 T00671022 50006





000
SAUS41 KLWX 280203
MTRRSP
METAR KRSP 280154Z AUTO 10SM OVC044 01/M06 A2975 RMK AO2 SLP091
T00061056 $





000
SAUS41 KLWX 280200
MTRRYT
METAR KRYT 280153Z AUTO VRB05KT 10SM OVC055 03/M05 A2983 RMK AO2
SLP110 T00331050 $





000
SAUS41 KLWX 280200
MTRRYT
METAR KRYT 280153Z AUTO VRB05KT 10SM OVC055 03/M05 A2983 RMK AO2
SLP110 T00331050 $





000
SAUS41 KLWX 280155
MTRNAK
METAR KNAK 280154Z AUTO 00000KT 8SM BKN120 06/03 A2982 RMK AO2
SLP101 T00560028





000
SAUS41 KLWX 280103
MTRRSP
METAR KRSP 280054Z AUTO 10SM OVC047 02/M05 A2974 RMK AO2 SLP088
T00171050 $





000
SAUS41 KLWX 280101 COR
MTRDMH
METAR KDMH 280054Z AUTO 08/M04 A2981 RMK AO1 SLP093 T00831039





000
SAUS41 KLWX 280100
MTRRYT
METAR KRYT 280053Z AUTO VRB04KT 10SM OVC055 04/M06 A2981 RMK AO2
SLP105 T00441056 $





000
SAUS41 KLWX 280055
MTRNAK
METAR KNAK 280054Z AUTO 00000KT 8SM FEW065 BKN120 05/03 A2980 RMK
AO2 SLP094 T00500028





000
SAUS41 KLWX 280004
MTRRSP
METAR KRSP 272354Z AUTO 10SM OVC047 02/M06 A2972 RMK AO2 SLP083
T00221056 10056 20022 53005 $





000
SAUS41 KLWX 280004
MTRRSP
METAR KRSP 272354Z AUTO 10SM OVC047 02/M06 A2972 RMK AO2 SLP083
T00221056 10056 20022 53005 $





000
SAUS41 KLWX 280001 COR
MTRDMH
METAR KDMH 272354Z AUTO 08/M04 A2979 RMK AO1 SLP088 T00831044 10094
20078 53010





000
SAUS41 KLWX 280001 COR
MTRDMH
METAR KDMH 272354Z AUTO 08/M04 A2979 RMK AO1 SLP088 T00831044 10094
20078 53010





000
SAUS41 KLWX 280000
MTRRYT
METAR KRYT 272353Z AUTO VRB03KT 10SM OVC055 05/M06 A2978 RMK AO2
SLP095 T00501056 10078 20050 53016 $





000
SAUS41 KLWX 280000
MTRRYT
METAR KRYT 272353Z AUTO VRB03KT 10SM OVC055 05/M06 A2978 RMK AO2
SLP095 T00501056 10078 20050 53016 $





000
SAUS41 KLWX 272355
MTRNAK
METAR KNAK 272354Z AUTO 00000KT 9SM BKN060 06/03 A2979 RMK AO2
SLP090 60001 T00610028 10072 20056 53011





000
SAUS41 KLWX 272355
MTRNAK
METAR KNAK 272354Z AUTO 00000KT 9SM BKN060 06/03 A2979 RMK AO2
SLP090 60001 T00610028 10072 20056 53011





000
SAUS41 KLWX 272303
MTRRSP
METAR KRSP 272254Z AUTO 10SM OVC047 03/M06 A2971 RMK AO2 SLP077
T00281056 $





000
SAUS41 KLWX 272303
MTRRSP
METAR KRSP 272254Z AUTO 10SM OVC047 03/M06 A2971 RMK AO2 SLP077
T00281056 $





000
SAUS41 KLWX 272301 COR
MTRDMH
METAR KDMH 272254Z AUTO 09/M04 A2977 RMK AO1 SLP081 T00941044





000
SAUS41 KLWX 272301 COR
MTRDMH
METAR KDMH 272254Z AUTO 09/M04 A2977 RMK AO1 SLP081 T00941044





000
SAUS41 KLWX 272300
MTRRYT
METAR KRYT 272253Z AUTO 34006KT 10SM OVC055 06/M05 A2976 RMK AO2
SLP087 T00611050 $





000
SAUS41 KLWX 272300
MTRRYT
METAR KRYT 272253Z AUTO 34006KT 10SM OVC055 06/M05 A2976 RMK AO2
SLP087 T00611050 $





000
SAUS41 KLWX 272256
MTRNAK
METAR KNAK 272254Z AUTO 14004KT 10SM FEW060 06/01 A2978 RMK AO2
SLP085 T00610006





000
SAUS41 KLWX 272256
MTRNAK
METAR KNAK 272254Z AUTO 14004KT 10SM FEW060 06/01 A2978 RMK AO2
SLP085 T00610006





000
SAUS41 KLWX 272204
MTRRSP
METAR KRSP 272154Z AUTO 10SM OVC040 04/M05 A2970 RMK AO2 SLP074
T00391050 $





000
SAUS41 KLWX 272201 COR
MTRDMH
METAR KDMH 272154Z AUTO 09/M04 A2975 RMK AO1 SLP073 T00941039





000
SAUS41 KLWX 272200
MTRRYT
METAR KRYT 272153Z AUTO 02005KT 10SM OVC050 07/M05 A2975 RMK AO2
SLP080 T00671050 $





000
SAUS41 KLWX 272200
MTRRYT
METAR KRYT 272153Z AUTO 02005KT 10SM OVC050 07/M05 A2975 RMK AO2
SLP080 T00671050 $





000
SAUS41 KLWX 272155
MTRNAK
METAR KNAK 272154Z AUTO 13006KT 9SM BKN050 OVC110 06/02 A2976 RMK
AO2 SLP080 T00610022





000
SAUS41 KLWX 272103
MTRRSP
METAR KRSP 272054Z AUTO 10SM OVC042 05/M05 A2971 RMK AO2 SLP075
T00501050 58010 $





000
SAUS41 KLWX 272103
MTRRSP
METAR KRSP 272054Z AUTO 10SM OVC042 05/M05 A2971 RMK AO2 SLP075
T00501050 58010 $





000
SAUS41 KLWX 272101 COR
MTRDMH
METAR KDMH 272054Z AUTO 09/M03 A2976 RMK AO1 SLP078 T00891033 56013





000
SAUS41 KLWX 272100
MTRRYT
METAR KRYT 272053Z AUTO 02005KT 10SM BKN050 07/M05 A2974 RMK AO2
SLP076 T00721050 56005 $





000
SAUS41 KLWX 272055
MTRNAK
METAR KNAK 272054Z AUTO 13004KT 9SM BKN048 OVC110 06/02 A2976 RMK
AO2 SLP079 60001 T00610022 55010





000
SAUS41 KLWX 272034
MTRNAK
SPECI KNAK 272033Z AUTO 13004KT 9SM SCT029 OVC046 06/03 A2975 RMK
AO2 T00610028





000
SAUS41 KLWX 272020
MTRNAK
SPECI KNAK 272019Z AUTO 14004KT 9SM BKN029 BKN046 BKN110 06/03 A2976
RMK AO2 T00610028





000
SAUS41 KLWX 272003
MTRRSP
METAR KRSP 271954Z AUTO 10SM OVC038 04/M05 A2972 RMK AO2 SLP081
T00441050 $





000
SAUS41 KLWX 272001 COR
MTRDMH
METAR KDMH 271954Z AUTO 09/M03 A2976 RMK AO1 SLP079 T00891033





000
SAUS41 KLWX 272000
MTRRYT
METAR KRYT 271953Z AUTO 36007KT 10SM OVC049 07/M04 A2974 RMK AO2
SLP077 T00721044 $





000
SAUS41 KLWX 271955
MTRNAK
METAR KNAK 271954Z AUTO 13008KT 8SM FEW100 06/03 A2976 RMK AO2
SLP078 T00610033





000
SAUS41 KLWX 271955
MTRNAK
METAR KNAK 271954Z AUTO 13008KT 8SM FEW100 06/03 A2976 RMK AO2
SLP078 T00610033





000
SAUS41 KLWX 271903
MTRRSP
METAR KRSP 271854Z AUTO 10SM BKN036 04/M04 A2974 RMK AO2 SLP086
T00441044 $





000
SAUS41 KLWX 271901 COR
MTRDMH
METAR KDMH 271854Z AUTO 08/M02 A2978 RMK AO1 SLP083 T00831022





000
SAUS41 KLWX 271900
MTRRYT
METAR KRYT 271853Z AUTO 02007KT 10SM BKN047 07/M04 A2975 RMK AO2
SLP079 T00721044 $





000
SAUS41 KLWX 271855
MTRNAK
METAR KNAK 271854Z AUTO 00000KT 9SM FEW041 BKN050 BKN090 07/03 A2978
RMK AO2 RAE15 SLP084 P0001 T00670028





000
SAUS41 KLWX 271855
MTRNAK
METAR KNAK 271854Z AUTO 00000KT 9SM FEW041 BKN050 BKN090 07/03 A2978
RMK AO2 RAE15 SLP084 P0001 T00670028





000
SAUS41 KLWX 271825
MTRNAK
SPECI KNAK 271824Z AUTO 00000KT 9SM SCT026 SCT030 OVC040 06/03 A2980
RMK AO2 RAE15 P0001 T00610028





000
SAUS41 KLWX 271825
MTRNAK
SPECI KNAK 271824Z AUTO 00000KT 9SM SCT026 SCT030 OVC040 06/03 A2980
RMK AO2 RAE15 P0001 T00610028





000
SAUS41 KLWX 271803
MTRRSP
METAR KRSP 271754Z AUTO 10SM BKN036 04/M04 A2974 RMK AO2 SLP085
T00441039 10050 20011 58016 $





000
SAUS41 KLWX 271801 COR
MTRDMH
METAR KDMH 271754Z AUTO 08/M02 A2980 RMK AO1 SLP091 60001 T00831017
10083 20061 55005





000
SAUS41 KLWX 271800
MTRRYT
METAR KRYT 271753Z AUTO 34007G14KT 10SM BKN047 07/M05 A2975 RMK AO2
PRESFR SLP080 T00671050 10067 20044 58017 $





000
SAUS41 KLWX 271800
MTRRYT
METAR KRYT 271753Z AUTO 34007G14KT 10SM BKN047 07/M05 A2975 RMK AO2
PRESFR SLP080 T00671050 10067 20044 58017 $





000
SAUS41 KLWX 271757
MTRNAK
METAR KNAK 271754Z AUTO 00000KT 6SM -RA FEW023 BKN028 OVC041 06/03
A2979 RMK AO2 SLP089 P0001 60006 T00610028 10061 20050 58005





000
SAUS41 KLWX 271757
MTRNAK
METAR KNAK 271754Z AUTO 00000KT 6SM -RA FEW023 BKN028 OVC041 06/03
A2979 RMK AO2 SLP089 P0001 60006 T00610028 10061 20050 58005





000
SAUS41 KLWX 271724
MTRNAK
SPECI KNAK 271723Z AUTO 00000KT 9SM -RA BKN027 OVC033 06/02 A2980
RMK AO2 P0000 T00610022





000
SAUS41 KLWX 271724
MTRNAK
SPECI KNAK 271723Z AUTO 00000KT 9SM -RA BKN027 OVC033 06/02 A2980
RMK AO2 P0000 T00610022





000
SAUS41 KLWX 271703
MTRRSP
METAR KRSP 271654Z AUTO 10SM BKN034 04/M04 A2977 RMK AO2 SLP095
T00391039 $





000
SAUS41 KLWX 271703
MTRRSP
METAR KRSP 271654Z AUTO 10SM BKN034 04/M04 A2977 RMK AO2 SLP095
T00391039 $





000
SAUS41 KLWX 271702 COR
MTRDMH
METAR KDMH 271654Z AUTO 07/M01 A2979 RMK AO1 SLP089 T00721006





000
SAUS41 KLWX 271702 COR
MTRDMH
METAR KDMH 271654Z AUTO 07/M01 A2979 RMK AO1 SLP089 T00721006





000
SAUS41 KLWX 271700
MTRRYT
METAR KRYT 271653Z AUTO 36010G15KT 10SM BKN045 07/M04 A2978 RMK AO2
SLP091 T00671039 $





000
SAUS41 KLWX 271700
MTRRYT
METAR KRYT 271653Z AUTO 36010G15KT 10SM BKN045 07/M04 A2978 RMK AO2
SLP091 T00671039 $





000
SAUS41 KLWX 271656
MTRNAK
METAR KNAK 271654Z AUTO 03003KT 8SM -RA FEW030 BKN046 OVC060 06/02
A2979 RMK AO2 RAE08B47 SLP088 P0000 T00610022





000
SAUS41 KLWX 271656
MTRNAK
METAR KNAK 271654Z AUTO 03003KT 8SM -RA FEW030 BKN046 OVC060 06/02
A2979 RMK AO2 RAE08B47 SLP088 P0000 T00610022





000
SAUS41 KLWX 271603
MTRRSP
METAR KRSP 271554Z AUTO 10SM SCT034 03/M04 A2979 RMK AO2 SLP103
T00281039 $





000
SAUS41 KLWX 271603
MTRRSP
METAR KRSP 271554Z AUTO 10SM SCT034 03/M04 A2979 RMK AO2 SLP103
T00281039 $





000
SAUS41 KLWX 271601 COR
MTRDMH
METAR KDMH 271554Z AUTO 07/01 A2982 RMK AO1 SLP096 T00720011





000
SAUS41 KLWX 271600
MTRRYT
METAR KRYT 271553Z AUTO 33003KT 10SM SCT039 06/M04 A2979 RMK AO2
SLP095 T00561044 $





000
SAUS41 KLWX 271555
MTRNAK
METAR KNAK 271554Z AUTO 00000KT 9SM -RA OVC042 06/02 A2982 RMK AO2
RAE24B42 PRESRR SLP101 P0001 T00610017





000
SAUS41 KLWX 271516
MTRNAK
SPECI KNAK 271514Z AUTO 02005KT 9SM -RA FEW022 BKN030 OVC070 05/02
A2981 RMK AO2 P0001 T00500022





000
SAUS41 KLWX 271516
MTRNAK
SPECI KNAK 271514Z AUTO 02005KT 9SM -RA FEW022 BKN030 OVC070 05/02
A2981 RMK AO2 P0001 T00500022





000
SAUS41 KLWX 271504
MTRRSP
METAR KRSP 271454Z AUTO 8SM FEW021 SCT027 OVC100 02/M02 A2979 RMK
AO2 SLP103 T00221022 53015 $





000
SAUS41 KLWX 271504
MTRRSP
METAR KRSP 271454Z AUTO 8SM FEW021 SCT027 OVC100 02/M02 A2979 RMK
AO2 SLP103 T00221022 53015 $





000
SAUS41 KLWX 271500
MTRDMH
METAR KDMH 271454Z AUTO 07/02 A2982 RMK AO1 SLP096 60001 T00720022
55001





000
SAUS41 KLWX 271500
MTRDMH
METAR KDMH 271454Z AUTO 07/02 A2982 RMK AO1 SLP096 60001 T00720022
55001





000
SAUS41 KLWX 271500
MTRRYT
METAR KRYT 271453Z AUTO 01003KT 10SM OVC035 05/M03 A2980 RMK AO2
SLP099 T00501028 51009 $





000
SAUS41 KLWX 271455
MTRNAK
METAR KNAK 271454Z AUTO 04006KT 5SM -RA BKN020 OVC028 05/02 A2980
RMK AO2 SLP094 P0003 60004 T00500022 50000





000
SAUS41 KLWX 271421
MTRNAK
SPECI KNAK 271420Z AUTO 33005KT 5SM -RA BKN023 BKN029 OVC036 06/03
A2981 RMK AO2 P0001 T00560028





000
SAUS41 KLWX 271421
MTRNAK
SPECI KNAK 271420Z AUTO 33005KT 5SM -RA BKN023 BKN029 OVC036 06/03
A2981 RMK AO2 P0001 T00560028





000
SAUS41 KLWX 271403
MTRRSP
METAR KRSP 271354Z AUTO 7SM FEW016 BKN100 02/M02 A2975 RMK AO2
SLP089 T00221017 $





000
SAUS41 KLWX 271403
MTRRSP
METAR KRSP 271354Z AUTO 7SM FEW016 BKN100 02/M02 A2975 RMK AO2
SLP089 T00221017 $





000
SAUS41 KLWX 271401 COR
MTRDMH
METAR KDMH 271354Z AUTO 07/02 A2981 RMK AO1 SLP095 T00670022





000
SAUS41 KLWX 271401 COR
MTRDMH
METAR KDMH 271354Z AUTO 07/02 A2981 RMK AO1 SLP095 T00670022





000
SAUS41 KLWX 271400
MTRRYT
METAR KRYT 271353Z AUTO 36004KT 10SM SCT110 05/M02 A2979 RMK AO2
SLP094 T00501017 $





000
SAUS41 KLWX 271355
MTRNAK
METAR KNAK 271354Z AUTO 02003KT 8SM -RA FEW028 BKN035 OVC044 06/03
A2980 RMK AO2 RAB07 SLP093 P0001 T00560028





000
SAUS41 KLWX 271343
MTRNAK
SPECI KNAK 271342Z AUTO 01004KT 5SM -RA FEW022 BKN033 OVC039 06/02
A2981 RMK AO2 RAB07 P0000 T00560022





000
SAUS41 KLWX 271333
MTRNAK
SPECI KNAK 271331Z AUTO 34005KT 6SM -RA BKN028 BKN039 OVC060 06/03
A2982 RMK AO2 RAB07 P0000 T00560028





000
SAUS41 KLWX 271303
MTRRSP
METAR KRSP 271254Z AUTO 6SM HZ OVC095 02/M02 A2973 RMK AO2 SLP081
T00171017 $





000
SAUS41 KLWX 271303
MTRRSP
METAR KRSP 271254Z AUTO 6SM HZ OVC095 02/M02 A2973 RMK AO2 SLP081
T00171017 $





000
SAUS41 KLWX 271301 COR
MTRDMH
METAR KDMH 271254Z AUTO 06/02 A2979 RMK AO1 SLP088 P0001 T00610022





000
SAUS41 KLWX 271300
MTRRYT
METAR KRYT 271253Z AUTO 00000KT 10SM OVC110 04/M02 A2979 RMK AO2
SLP095 T00441017 $





000
SAUS41 KLWX 271256
MTRNAK
METAR KNAK 271254Z AUTO 34005KT 6SM BR OVC065 06/03 A2981 RMK AO2
SLP096 T00560033





000
SAUS41 KLWX 271203
MTRRSP
METAR KRSP 271154Z AUTO 7SM OVC085 02/M02 A2974 RMK AO2 SLP084 60008
70048 T00171017 10039 20017 58009 $





000
SAUS41 KLWX 271201 COR
MTRDMH
METAR KDMH 271154Z AUTO 07/03 A2982 RMK AO1 SLP097 60042 70092
T00670033 10089 20050 53005





000
SAUS41 KLWX 271200
MTRRYT
METAR KRYT 271153Z AUTO 31003KT 10SM OVC095 04/M01 A2978 RMK AO2
SLP087 60006 70049 T00441011 10067 20044 53003 $





000
SAUS41 KLWX 271155
MTRNAK
METAR KNAK 271154Z AUTO 35004KT 7SM OVC070 05/03 A2980 RMK AO2 RAE32
SLP094 P0001 60028 70086 T00500033 10078 20050 53000





000
SAUS41 KLWX 271155
MTRNAK
METAR KNAK 271154Z AUTO 35004KT 7SM OVC070 05/03 A2980 RMK AO2 RAE32
SLP094 P0001 60028 70086 T00500033 10078 20050 53000





000
SAUS41 KLWX 271103
MTRRSP
METAR KRSP 271054Z AUTO 9SM OVC080 02/M01 A2976 RMK AO2 SLP089
T00171006 $





000
SAUS41 KLWX 271103
MTRRSP
METAR KRSP 271054Z AUTO 9SM OVC080 02/M01 A2976 RMK AO2 SLP089
T00171006 $





000
SAUS41 KLWX 271101 COR
MTRDMH
METAR KDMH 271054Z AUTO 06/04 A2979 RMK AO1 SLP088 P0002 T00560039





000
SAUS41 KLWX 271101 COR
MTRDMH
METAR KDMH 271054Z AUTO 06/04 A2979 RMK AO1 SLP088 P0002 T00560039





000
SAUS41 KLWX 271100
MTRRYT
METAR KRYT 271053Z AUTO VRB04KT 10SM BKN090 OVC110 04/00 A2977 RMK
AO2 RAE26 SLP082 P0000 T00440000 $





000
SAUS41 KLWX 271100
MTRRYT
METAR KRYT 271053Z AUTO VRB04KT 10SM BKN090 OVC110 04/00 A2977 RMK
AO2 RAE26 SLP082 P0000 T00440000 $





000
SAUS41 KLWX 271056
MTRNAK
METAR KNAK 271054Z AUTO 34008KT 9SM -RA OVC090 05/03 A2978 RMK AO2
SLP087 P0002 T00500028





000
SAUS41 KLWX 271056
MTRNAK
METAR KNAK 271054Z AUTO 34008KT 9SM -RA OVC090 05/03 A2978 RMK AO2
SLP087 P0002 T00500028





000
SAUS41 KLWX 271003
MTRRSP
METAR KRSP 270954Z AUTO 9SM FEW013 BKN050 OVC075 02/00 A2977 RMK AO2
UPE0859 SLP088 P0000 T00220000 $





000
SAUS41 KLWX 271001 COR
MTRDMH
METAR KDMH 270954Z AUTO 05/03 A2980 RMK AO1 SLP092 P0012 T00500028





000
SAUS41 KLWX 271000
MTRRYT
METAR KRYT 270953Z AUTO 35005KT 10SM -RA FEW055 BKN080 OVC110 05/00
A2976 RMK AO2 SLP076 P0000 T00500000 $





000
SAUS41 KLWX 270955
MTRNAK
METAR KNAK 270954Z AUTO 35011KT 6SM -RA BR FEW014 BKN041 OVC080
06/04 A2980 RMK AO2 SLP092 P0004 T00560039





000
SAUS41 KLWX 270948
MTRRSP
SPECI KRSP 270939Z AUTO 8SM SCT008 BKN065 OVC080 02/01 A2977 RMK AO2
UPE0859 P0000 $





000
SAUS41 KLWX 270948
MTRRSP
SPECI KRSP 270939Z AUTO 8SM SCT008 BKN065 OVC080 02/01 A2977 RMK AO2
UPE0859 P0000 $





000
SAUS41 KLWX 270903
MTRNAK
SPECI KNAK 270902Z AUTO 35013KT 5SM -RA BR FEW017 BKN041 OVC070
07/04 A2979 RMK AO2 P0000 T00670044





000
SAUS41 KLWX 270903
MTRRSP
METAR KRSP 270854Z AUTO 6SM UP BR BKN008 OVC023 03/02 A2977 RMK AO2
RAE51UPB00E05B51 SLP086 P0003 60008 T00280017 53002 $





000
SAUS41 KLWX 270903
MTRRSP
METAR KRSP 270854Z AUTO 6SM UP BR BKN008 OVC023 03/02 A2977 RMK AO2
RAE51UPB00E05B51 SLP086 P0003 60008 T00280017 53002 $





000
SAUS41 KLWX 270901 COR
MTRDMH
METAR KDMH 270854Z AUTO 06/03 A2980 RMK AO1 SLP092 P0017 60028
T00610033 53011





000
SAUS41 KLWX 270900
MTRRYT
METAR KRYT 270853Z AUTO 36007KT 9SM -RA FEW020 OVC033 06/02 A2977
RMK AO2 SLP079 P0001 60006 T00560017 56003 $





000
SAUS41 KLWX 270900
MTRRYT
METAR KRYT 270853Z AUTO 36007KT 9SM -RA FEW020 OVC033 06/02 A2977
RMK AO2 SLP079 P0001 60006 T00560017 56003 $





000
SAUS41 KLWX 270855
MTRNAK
METAR KNAK 270854Z AUTO 34014KT 3SM RA BR SCT017 BKN027 OVC050 07/04
A2980 RMK AO2 SLP093 P0005 60021 T00670044 53014





000
SAUS41 KLWX 270803
MTRRSP
METAR KRSP 270754Z AUTO 6SM -RA BR BKN008 OVC013 03/02 A2977 RMK AO2
SLP084 P0003 T00280017 $





000
SAUS41 KLWX 270803
MTRRSP
METAR KRSP 270754Z AUTO 6SM -RA BR BKN008 OVC013 03/02 A2977 RMK AO2
SLP084 P0003 T00280017 $





000
SAUS41 KLWX 270801 COR
MTRDMH
METAR KDMH 270754Z AUTO 08/06 A2980 RMK AO1 SLP089 P0002 T00830056





000
SAUS41 KLWX 270800
MTRRYT
METAR KRYT 270753Z AUTO 35006KT 9SM -RA FEW020 OVC034 06/02 A2977
RMK AO2 SLP080 P0002 T00560022 $





000
SAUS41 KLWX 270755
MTRNAK
METAR KNAK 270754Z AUTO 33008KT 10SM -RA OVC060 08/06 A2978 RMK AO2
SLP088 P0004 T00780056





000
SAUS41 KLWX 270751
MTRRSP
SPECI KRSP 270742Z AUTO 5SM -RA BR BKN008 BKN011 OVC033 03/02 A2976
RMK AO2 P0003 $





000
SAUS41 KLWX 270751
MTRRSP
SPECI KRSP 270742Z AUTO 5SM -RA BR BKN008 BKN011 OVC033 03/02 A2976
RMK AO2 P0003 $





000
SAUS41 KLWX 270725
MTRRSP
SPECI KRSP 270716Z AUTO 6SM -RA BR SCT007 BKN013 OVC032 03/02 A2975
RMK AO2 P0001 $





000
SAUS41 KLWX 270725
MTRRSP
SPECI KRSP 270716Z AUTO 6SM -RA BR SCT007 BKN013 OVC032 03/02 A2975
RMK AO2 P0001 $





000
SAUS41 KLWX 270709
MTRRSP
SPECI KRSP 270701Z AUTO 6SM -RA BR BKN009 BKN013 OVC036 03/02 A2975
RMK AO2 P0001 $





000
SAUS41 KLWX 270709
MTRRSP
SPECI KRSP 270701Z AUTO 6SM -RA BR BKN009 BKN013 OVC036 03/02 A2975
RMK AO2 P0001 $





000
SAUS41 KLWX 270703
MTRRSP
METAR KRSP 270654Z AUTO 7SM -RA BKN011 OVC041 03/02 A2975 RMK AO2
SLP080 P0002 T00330017 $





000
SAUS41 KLWX 270703
MTRRSP
METAR KRSP 270654Z AUTO 7SM -RA BKN011 OVC041 03/02 A2975 RMK AO2
SLP080 P0002 T00330017 $





000
SAUS41 KLWX 270701 COR
MTRDMH
METAR KDMH 270654Z AUTO 08/06 A2976 RMK AO1 SLP079 P0009 T00830061





000
SAUS41 KLWX 270701 COR
MTRDMH
METAR KDMH 270654Z AUTO 08/06 A2976 RMK AO1 SLP079 P0009 T00830061





000
SAUS41 KLWX 270700
MTRRYT
METAR KRYT 270653Z AUTO 00000KT 9SM -RA OVC040 06/02 A2977 RMK AO2
SLP078 P0003 T00610022 $





000
SAUS41 KLWX 270700
MTRRYT
METAR KRYT 270653Z AUTO 00000KT 9SM -RA OVC040 06/02 A2977 RMK AO2
SLP078 P0003 T00610022 $





000
SAUS41 KLWX 270655
MTRRSP
SPECI KRSP 270646Z AUTO 7SM -RA BKN011 OVC041 03/02 A2976 RMK AO2
P0002 $





000
SAUS41 KLWX 270655
MTRRSP
SPECI KRSP 270646Z AUTO 7SM -RA BKN011 OVC041 03/02 A2976 RMK AO2
P0002 $





000
SAUS41 KLWX 270655
MTRNAK
METAR KNAK 270654Z AUTO 34008KT 7SM -RA OVC055 08/06 A2976 RMK AO2
SLP081 P0012 T00780061





000
SAUS41 KLWX 270655
MTRNAK
METAR KNAK 270654Z AUTO 34008KT 7SM -RA OVC055 08/06 A2976 RMK AO2
SLP081 P0012 T00780061





000
SAUS41 KLWX 270648
MTRRSP
SPECI KRSP 270639Z AUTO 6SM -RA BR SCT011 BKN041 OVC065 03/02 A2976
RMK AO2 P0002 $





000
SAUS41 KLWX 270648
MTRRSP
SPECI KRSP 270639Z AUTO 6SM -RA BR SCT011 BKN041 OVC065 03/02 A2976
RMK AO2 P0002 $





000
SAUS41 KLWX 270603
MTRRSP
METAR KRSP 270554Z AUTO 7SM -RA SCT016 BKN023 OVC065 04/02 A2976 RMK
AO2 RAB30 SLP086 P0000 60003 T00390017 10094 20039 53007 $





000
SAUS41 KLWX 270603
MTRRSP
METAR KRSP 270554Z AUTO 7SM -RA SCT016 BKN023 OVC065 04/02 A2976 RMK
AO2 RAB30 SLP086 P0000 60003 T00390017 10094 20039 53007 $





000
SAUS41 KLWX 270601 COR
MTRDMH
METAR KDMH 270554Z AUTO 09/06 A2977 RMK AO1 SLP081 P0009 60039
T00890056 10183 20089 53018





000
SAUS41 KLWX 270601 COR
MTRDMH
METAR KDMH 270554Z AUTO 09/06 A2977 RMK AO1 SLP081 P0009 60039
T00890056 10183 20089 53018





000
SAUS41 KLWX 270600
MTRRYT
METAR KRYT 270553Z AUTO 00000KT 10SM -RA FEW028 BKN065 OVC080 07/03
A2978 RMK AO2 SLP082 P0000 60003 T00720028 10133 20067 53009 $





000
SAUS41 KLWX 270600
MTRRYT
METAR KRYT 270553Z AUTO 00000KT 10SM -RA FEW028 BKN065 OVC080 07/03
A2978 RMK AO2 SLP082 P0000 60003 T00720028 10133 20067 53009 $





000
SAUS41 KLWX 270555
MTRNAK
METAR KNAK 270554Z AUTO 33006KT 3SM -RA BR OVC060 08/06 A2976 RMK
AO2 SLP079 P0021 60045 T00780061 10150 20078 51015





000
SAUS41 KLWX 270555
MTRNAK
METAR KNAK 270554Z AUTO 33006KT 3SM -RA BR OVC060 08/06 A2976 RMK
AO2 SLP079 P0021 60045 T00780061 10150 20078 51015





000
SAUS41 KLWX 270535
MTRNAK
SPECI KNAK 270533Z AUTO 33007KT 5SM RA OVC060 08/06 A2976 RMK AO2
P0014 T00830056





000
SAUS41 KLWX 270521
MTRNAK
SPECI KNAK 270520Z AUTO 32008KT 2SM +RA OVC060 08/06 A2975 RMK AO2
P0012 T00830056





000
SAUS41 KLWX 270521
MTRNAK
SPECI KNAK 270520Z AUTO 32008KT 2SM +RA OVC060 08/06 A2975 RMK AO2
P0012 T00830056





000
SAUS41 KLWX 270515
MTRRSP
SPECI KRSP 270506Z AUTO 10SM BKN018 OVC075 04/03 A2975 RMK AO2 $





000
SAUS41 KLWX 270515
MTRRSP
SPECI KRSP 270506Z AUTO 10SM BKN018 OVC075 04/03 A2975 RMK AO2 $





000
SAUS41 KLWX 270503
MTRRSP
METAR KRSP 270454Z AUTO 9SM SCT016 OVC075 04/03 A2975 RMK AO2 RAE47
SLP082 P0002 T00440028 402000044 $





000
SAUS41 KLWX 270503
MTRRSP
METAR KRSP 270454Z AUTO 9SM SCT016 OVC075 04/03 A2975 RMK AO2 RAE47
SLP082 P0002 T00440028 402000044 $





000
SAUS41 KLWX 270500
MTRRYT
METAR KRYT 270453Z AUTO VRB05KT 10SM -RA OVC085 08/03 A2974 RMK AO2
SLP072 P0002 T00780028 402220017 $





000
SAUS41 KLWX 270500
MTRRYT
METAR KRYT 270453Z AUTO VRB05KT 10SM -RA OVC085 08/03 A2974 RMK AO2
SLP072 P0002 T00780028 402220017 $





000
SAUS41 KLWX 270459 COR
MTRDMH
METAR KDMH 270454Z AUTO 10/04 A2975 RMK AO1 SLP074 T01000044
402110061





000
SAUS41 KLWX 270459 COR
MTRDMH
METAR KDMH 270454Z AUTO 10/04 A2975 RMK AO1 SLP074 T01000044
402110061





000
SAUS41 KLWX 270456
MTRNAK
METAR KNAK 270454Z AUTO 33010KT 4SM RA OVC060 09/06 A2976 RMK AO2
SLP078 P0007 T00890056 401830044





000
SAUS41 KLWX 270456
MTRNAK
METAR KNAK 270454Z AUTO 33010KT 4SM RA OVC060 09/06 A2976 RMK AO2
SLP078 P0007 T00890056 401830044





000
SAUS41 KLWX 270425
MTRNAK
SPECI KNAK 270424Z AUTO 34011KT 6SM -RA FEW029 OVC065 09/06 A2972
RMK AO2 P0002 T00940061





000
SAUS41 KLWX 270414
MTRNAK
SPECI KNAK 270412Z AUTO 32009G16KT 10SM -RA SCT014 BKN029 OVC060
11/07 A2973 RMK AO2 P0001 T01060072





000
SAUS41 KLWX 270404
MTRRSP
METAR KRSP 270354Z AUTO 8SM -RA FEW010 OVC070 05/03 A2975 RMK AO2
RAB15 SLP081 P0000 T00500033 $





000
SAUS41 KLWX 270404
MTRRSP
METAR KRSP 270354Z AUTO 8SM -RA FEW010 OVC070 05/03 A2975 RMK AO2
RAB15 SLP081 P0000 T00500033 $





000
SAUS41 KLWX 270400
MTRRYT
METAR KRYT 270353Z AUTO VRB03KT 10SM -RA OVC080 08/04 A2976 RMK AO2
RAB06 SLP076 P0001 T00780039 $





000
SAUS41 KLWX 270400
MTRRYT
METAR KRYT 270353Z AUTO VRB03KT 10SM -RA OVC080 08/04 A2976 RMK AO2
RAB06 SLP076 P0001 T00780039 $





000
SAUS41 KLWX 270355
MTRNAK
METAR KNAK 270354Z AUTO 34011KT 8SM -RA BKN013 BKN022 OVC048 11/08
A2973 RMK AO2 SLP068 P0006 T01060083





000
SAUS41 KLWX 270355
MTRNAK
METAR KNAK 270354Z AUTO 34011KT 8SM -RA BKN013 BKN022 OVC048 11/08
A2973 RMK AO2 SLP068 P0006 T01060083





000
SAUS41 KLWX 270350
MTRNAK
SPECI KNAK 270349Z AUTO 34010KT 10SM -RA BKN015 BKN048 OVC095 11/09
A2972 RMK AO2 P0006





000
SAUS41 KLWX 270322
MTRRSP
SPECI KRSP 270312Z AUTO 9SM SCT009 OVC070 06/04 A2973 RMK AO2 $





000
SAUS41 KLWX 270321
MTRNAK
SPECI KNAK 270319Z AUTO 32008KT 5SM RA SCT019 BKN047 OVC075 12/09
A2971 RMK AO2 P0004 T01170089





000
SAUS41 KLWX 270316
MTRRYT
SPECI KRYT 270309Z AUTO 34003KT 10SM -RA FEW020 OVC085 08/04 A2975
RMK AO2 RAB06 P0000 $





000
SAUS41 KLWX 270303
MTRRSP
METAR KRSP 270254Z AUTO 10SM BKN009 OVC075 06/03 A2974 RMK AO2
SLP079 60001 T00560033 51025 $





000
SAUS41 KLWX 270300
MTRRYT
METAR KRYT 270253Z AUTO 00000KT 10SM BKN020 OVC090 08/04 A2975 RMK
AO2 SLP078 60000 T00830039 51030 $





000
SAUS41 KLWX 270300
MTRRYT
METAR KRYT 270253Z AUTO 00000KT 10SM BKN020 OVC090 08/04 A2975 RMK
AO2 SLP078 60000 T00830039 51030 $





000
SAUS41 KLWX 270259 COR
MTRDMH
METAR KDMH 270254Z AUTO 12/09 A2972 RMK AO1 SLP063 P0013 60026
T01170089 53027





000
SAUS41 KLWX 270259 COR
MTRDMH
METAR KDMH 270254Z AUTO 12/09 A2972 RMK AO1 SLP063 P0013 60026
T01170089 53027





000
SAUS41 KLWX 270255
MTRNAK
METAR KNAK 270254Z AUTO 32006KT 5SM -RA BR BKN022 BKN027 OVC049
12/10 A2971 RMK AO2 RAE00B30 SLP062 P0008 60011 T01220100 51025





000
SAUS41 KLWX 270255
MTRNAK
METAR KNAK 270254Z AUTO 32006KT 5SM -RA BR BKN022 BKN027 OVC049
12/10 A2971 RMK AO2 RAE00B30 SLP062 P0008 60011 T01220100 51025





000
SAUS41 KLWX 270251
MTRNAK
SPECI KNAK 270249Z AUTO 33006KT 7SM -RA BKN026 OVC050 14/12 A2971
RMK AO2 RAE00B30 P0007





000
SAUS41 KLWX 270222
MTRRYT
SPECI KRYT 270221Z AUTO 36004KT 10SM SCT020 BKN024 OVC090 09/04
A2974 RMK AO2 $





000
SAUS41 KLWX 270203
MTRRSP
METAR KRSP 270154Z AUTO 9SM BKN007 BKN013 OVC075 06/04 A2972 RMK AO2
RAB27E47 SLP070 P0001 T00610039 $





000
SAUS41 KLWX 270203
MTRRSP
METAR KRSP 270154Z AUTO 9SM BKN007 BKN013 OVC075 06/04 A2972 RMK AO2
RAB27E47 SLP070 P0001 T00610039 $





000
SAUS41 KLWX 270200
MTRRYT
METAR KRYT 270153Z AUTO VRB06G20KT 10SM FEW070 OVC095 09/04 A2973
RMK AO2 SLP072 T00890044 $





000
SAUS41 KLWX 270159 COR
MTRDMH
METAR KDMH 270154Z AUTO 15/12 A2968 RMK AO1 SLP051 T01500117





000
SAUS41 KLWX 270159 COR
MTRDMH
METAR KDMH 270154Z AUTO 15/12 A2968 RMK AO1 SLP051 T01500117





000
SAUS41 KLWX 270155
MTRNAK
METAR KNAK 270154Z AUTO 32006KT 10SM -RA BKN040 BKN050 OVC100 14/11
A2967 RMK AO2 RAE09B51 SLP049 P0000 T01390111





000
SAUS41 KLWX 270155
MTRNAK
METAR KNAK 270154Z AUTO 32006KT 10SM -RA BKN040 BKN050 OVC100 14/11
A2967 RMK AO2 RAE09B51 SLP049 P0000 T01390111





000
SAUS41 KLWX 270103
MTRRSP
METAR KRSP 270054Z AUTO 10SM BKN007 BKN065 OVC100 07/06 A2970 RMK
AO2 RAE2357 PRESRR SLP064 P0000 T00720056 $





000
SAUS41 KLWX 270103
MTRRSP
METAR KRSP 270054Z AUTO 10SM BKN007 BKN065 OVC100 07/06 A2970 RMK
AO2 RAE2357 PRESRR SLP064 P0000 T00720056 $





000
SAUS41 KLWX 270100
MTRRYT
METAR KRYT 270053Z AUTO VRB03KT 10SM FEW015 SCT070 BKN085 10/05
A2968 RMK AO2 RAE11 SLP054 P0000 T01000050 $





000
SAUS41 KLWX 270100
MTRRYT
METAR KRYT 270053Z AUTO VRB03KT 10SM FEW015 SCT070 BKN085 10/05
A2968 RMK AO2 RAE11 SLP054 P0000 T01000050 $





000
SAUS41 KLWX 270059 COR
MTRDMH
METAR KDMH 270054Z AUTO 16/13 A2966 RMK AO1 SLP043 P0013 T01610128





000
SAUS41 KLWX 270059 COR
MTRDMH
METAR KDMH 270054Z AUTO 16/13 A2966 RMK AO1 SLP043 P0013 T01610128





000
SAUS41 KLWX 270055
MTRNAK
METAR KNAK 270054Z AUTO 33009KT 7SM -RA BKN060 BKN080 OVC095 14/12
A2963 RMK AO2 RAB37 SLP037 P0003 T01390117





000
SAUS41 KLWX 270055
MTRNAK
METAR KNAK 270054Z AUTO 33009KT 7SM -RA BKN060 BKN080 OVC095 14/12
A2963 RMK AO2 RAB37 SLP037 P0003 T01390117





000
SAUS41 KLWX 270031
MTRRSP
SPECI KRSP 270022Z AUTO 10SM SCT005 BKN065 OVC085 08/06 A2966 RMK
AO2 RAE2357 P0000 $





000
SAUS41 KLWX 270009
MTRRSP
SPECI KRSP 270001Z AUTO 8SM SCT005 SCT009 BKN019 09/08 A2967 RMK AO2
RAE2357 P0000 $





000
SAUS41 KLWX 270009
MTRRSP
SPECI KRSP 270001Z AUTO 8SM SCT005 SCT009 BKN019 09/08 A2967 RMK AO2
RAE2357 P0000 $





000
SAUS41 KLWX 270003
MTRRSP
METAR KRSP 262354Z AUTO 9SM -RA FEW005 SCT019 10/08 A2966 RMK AO2
RAB45 SLP051 P0000 60037 T01000078 10200 20100 53003 $





000
SAUS41 KLWX 270003
MTRRSP
METAR KRSP 262354Z AUTO 9SM -RA FEW005 SCT019 10/08 A2966 RMK AO2
RAB45 SLP051 P0000 60037 T01000078 10200 20100 53003 $





000
SAUS41 KLWX 270000
MTRRSP
SPECI KRSP 262351Z AUTO 9SM -RA FEW009 SCT019 10/08 A2966 RMK AO2
RAB45 P0000 $





000
SAUS41 KLWX 270000
MTRRSP
SPECI KRSP 262351Z AUTO 9SM -RA FEW009 SCT019 10/08 A2966 RMK AO2
RAB45 P0000 $





000
SAUS41 KLWX 270000
MTRRYT
METAR KRYT 262353Z AUTO 31007KT 260V340 10SM -RA FEW021 SCT034
SCT090 13/09 A2966 RMK AO2 RAB50 SLP047 P0000 60040 T01330094 10222
20133 53029 $





000
SAUS41 KLWX 270000
MTRRYT
METAR KRYT 262353Z AUTO 31007KT 260V340 10SM -RA FEW021 SCT034
SCT090 13/09 A2966 RMK AO2 RAB50 SLP047 P0000 60040 T01330094 10222
20133 53029 $





000
SAUS41 KLWX 262359 COR
MTRDMH
METAR KDMH 262354Z AUTO 18/14 A2964 RMK AO1 PRESRR SLP036 T01830139
10211 20128 53008





000
SAUS41 KLWX 262359 COR
MTRDMH
METAR KDMH 262354Z AUTO 18/14 A2964 RMK AO1 PRESRR SLP036 T01830139
10211 20128 53008





000
SAUS41 KLWX 262355
MTRNAK
METAR KNAK 262354Z AUTO 18007KT 10SM CLR 14/12 A2960 RMK AO2 SLP025
T01390117 10183 20133 55011





000
SAUS41 KLWX 262355
MTRNAK
METAR KNAK 262354Z AUTO 18007KT 10SM CLR 14/12 A2960 RMK AO2 SLP025
T01390117 10183 20133 55011





000
SAUS41 KLWX 262304
MTRRSP
METAR KRSP 262254Z AUTO 7SM SCT038 BKN050 OVC090 12/11 A2965 RMK AO2
TSB08E41RAB02E48 SLP045 P0037 T01220106 $





000
SAUS41 KLWX 262304
MTRRSP
METAR KRSP 262254Z AUTO 7SM SCT038 BKN050 OVC090 12/11 A2965 RMK AO2
TSB08E41RAB02E48 SLP045 P0037 T01220106 $





000
SAUS41 KLWX 262259
MTRRSP
SPECI KRSP 262250Z AUTO 7SM SCT039 BKN050 OVC090 12/11 A2965 RMK AO2
TSB08E41RAB02E48 P0037 $





000
SAUS41 KLWX 262259 COR
MTRDMH
METAR KDMH 262254Z AUTO 18/14 A2959 RMK AO1 SLP018 T01830139





000
SAUS41 KLWX 262259 COR
MTRDMH
METAR KDMH 262254Z AUTO 18/14 A2959 RMK AO1 SLP018 T01830139





000
SAUS41 KLWX 262259
MTRRSP
SPECI KRSP 262250Z AUTO 7SM SCT039 BKN050 OVC090 12/11 A2965 RMK AO2
TSB08E41RAB02E48 P0037 $





000
SAUS41 KLWX 262257
MTRRYT
METAR KRYT 262250Z AUTO 27010G18KT 10SM BKN043 BKN070 OVC090 15/11
A2964 RMK AO2 TSB11E49RAB07E46 SLP041 P0040 T01500111 $





000
SAUS41 KLWX 262257
MTRRYT
METAR KRYT 262250Z AUTO 27010G18KT 10SM BKN043 BKN070 OVC090 15/11
A2964 RMK AO2 TSB11E49RAB07E46 SLP041 P0040 T01500111 $





000
SAUS41 KLWX 262255
MTRNAK
METAR KNAK 262254Z AUTO 17016G25KT 10SM CLR 14/12 A2959 RMK AO2
SLP023 T01390117





000
SAUS41 KLWX 262250
MTRRSP
SPECI KRSP 262241Z AUTO 2SM -RA BR SCT032 BKN055 OVC090 12/11 A2965
RMK AO2 TSB08E41RAB02 P0037 $





000
SAUS41 KLWX 262250
MTRRSP
SPECI KRSP 262241Z AUTO 2SM -RA BR SCT032 BKN055 OVC090 12/11 A2965
RMK AO2 TSB08E41RAB02 P0037 $





000
SAUS41 KLWX 262250
MTRRYT
SPECI KRYT 262249Z AUTO 26008KT 10SM BKN043 BKN070 OVC090 15/11
A2964 RMK AO2 TSB11E49RAB07E46 P0040 $





000
SAUS41 KLWX 262250
MTRRYT
SPECI KRYT 262249Z AUTO 26008KT 10SM BKN043 BKN070 OVC090 15/11
A2964 RMK AO2 TSB11E49RAB07E46 P0040 $





000
SAUS41 KLWX 262247
MTRRSP
SPECI KRSP 262238Z AUTO 1 3/4SM -TSRA BR FEW009 BKN029 OVC090 12/11
A2965 RMK AO2 TSB08RAB02 P0037 $





000
SAUS41 KLWX 262247
MTRRSP
SPECI KRSP 262238Z AUTO 1 3/4SM -TSRA BR FEW009 BKN029 OVC090 12/11
A2965 RMK AO2 TSB08RAB02 P0037 $





000
SAUS41 KLWX 262228
MTRRSP
SPECI KRSP 262219Z AUTO 1/2SM +TSRA FG FEW011 BKN028 OVC060 12/11
A2965 RMK AO2 TSB08RAB02 P0025 $





000
SAUS41 KLWX 262226
MTRRYT
SPECI KRYT 262219Z AUTO VRB04G21KT 3/4SM +TSRA SCT029 BKN038 BKN110
15/12 A2962 RMK AO2 TSB11RAB07 PRESRR P0018 $





000
SAUS41 KLWX 262226
MTRRYT
SPECI KRYT 262219Z AUTO VRB04G21KT 3/4SM +TSRA SCT029 BKN038 BKN110
15/12 A2962 RMK AO2 TSB11RAB07 PRESRR P0018 $





000
SAUS41 KLWX 262221
MTRRSP
SPECI KRSP 262212Z AUTO 1 3/4SM TSRA BR FEW015 BKN031 OVC085 13/11
A2964 RMK AO2 TSB08RAB02 PRESRR P0009 $





000
SAUS41 KLWX 262215
MTRRYT
SPECI KRYT 262214Z AUTO 34010G23KT 290V360 2SM +TSRA SCT033 BKN040
BKN080 16/12 A2960 RMK AO2 TSB11RAB07 P0006 $





000
SAUS41 KLWX 262203
MTRRSP
METAR KRSP 262154Z AUTO 10SM SCT065 SCT080 18/11 A2960 RMK AO2
SLP023 T01830111 $





000
SAUS41 KLWX 262203
MTRRSP
METAR KRSP 262154Z AUTO 10SM SCT065 SCT080 18/11 A2960 RMK AO2
SLP023 T01830111 $





000
SAUS41 KLWX 262200
MTRRYT
METAR KRYT 262153Z AUTO 23010G17KT 190V260 10SM FEW085 21/12 A2955
RMK AO2 SLP005 T02110117 $





000
SAUS41 KLWX 262159 COR
MTRDMH
METAR KDMH 262154Z AUTO 19/14 A2960 RMK AO1 SLP022 T01890139





000
SAUS41 KLWX 262156
MTRNAK
METAR KNAK 262154Z AUTO 18011KT 10SM CLR 17/13 A2960 RMK AO2 SLP025
T01670128





000
SAUS41 KLWX 262156
MTRNAK
METAR KNAK 262154Z AUTO 18011KT 10SM CLR 17/13 A2960 RMK AO2 SLP025
T01670128





000
SAUS41 KLWX 262103
MTRRSP
METAR KRSP 262054Z AUTO 10SM FEW080 SCT100 19/11 A2962 RMK AO2
SLP028 T01940111 56026 $





000
SAUS41 KLWX 262100
MTRRYT
METAR KRYT 262053Z AUTO VRB05KT 10SM FEW070 SCT095 BKN110 22/13
A2957 RMK AO2 SLP012 T02170128 56033 $





000
SAUS41 KLWX 262059 COR
MTRDMH
METAR KDMH 262054Z AUTO 21/14 A2961 RMK AO1 SLP028 T02060139 56047





000
SAUS41 KLWX 262059 COR
MTRDMH
METAR KDMH 262054Z AUTO 21/14 A2961 RMK AO1 SLP028 T02060139 56047





000
SAUS41 KLWX 262056
MTRNAK
METAR KNAK 262054Z AUTO 18011KT 10SM CLR 17/13 A2963 RMK AO2 SLP036
T01670128 56041





000
SAUS41 KLWX 262056
MTRNAK
METAR KNAK 262054Z AUTO 18011KT 10SM CLR 17/13 A2963 RMK AO2 SLP036
T01670128 56041





    US Dept of Commerce
    National Oceanic and Atmospheric Administration
    National Weather Service
    1325 East West Highway
    Silver Spring, MD 20910
    Page Author: NWS Internet Services Team
Disclaimer
Information Quality
Credits
Glossary
Privacy Policy
Freedom of Information Act (FOIA)
About Us
Career Opportunities